<?xml version="1.0" encoding="UTF-8" standalone="no" ?>
<gpx xmlns="http://www.topografix.com/GPX/1/1" xmlns:xsi="http://www.w3.org/2001/XMLSchema-instance" xsi:schemaLocation="http://www.topografix.com/GPX/1/1 http://www.topografix.com/GPX/1/1/gpx.xsd" version="1.1" creator="VisuGPX - https://www.visugpx.com">
  <metadata>
    <name>83-M-Flayosc              </name>
    <desc><![CDATA[83-M-Flayosc : les Peylongs                   ]]></desc>
  </metadata>
  <trk>
    <name><![CDATA[2019-03-13-M-Flayosc]]></name>
    <desc><![CDATA[comment ...]]></desc>
    <trkseg>
      <trkpt lat="43.5344" lon="6.39901">
        <ele>297</ele>
        <time>2019-03-13T12:56:14Z</time>
      </trkpt>
      <trkpt lat="43.5344" lon="6.39901">
        <ele>297</ele>
        <time>2019-03-13T12:56:15Z</time>
      </trkpt>
      <trkpt lat="43.53436" lon="6.39899">
        <ele>295</ele>
        <time>2019-03-13T12:57:03Z</time>
      </trkpt>
      <trkpt lat="43.5343" lon="6.39898">
        <ele>295</ele>
        <time>2019-03-13T12:57:12Z</time>
      </trkpt>
      <trkpt lat="43.53424" lon="6.39898">
        <ele>297</ele>
        <time>2019-03-13T12:57:18Z</time>
      </trkpt>
      <trkpt lat="43.53416" lon="6.39894">
        <ele>297</ele>
        <time>2019-03-13T12:57:46Z</time>
      </trkpt>
      <trkpt lat="43.53411" lon="6.39895">
        <ele>298</ele>
        <time>2019-03-13T12:57:58Z</time>
      </trkpt>
      <trkpt lat="43.53406" lon="6.39894">
        <ele>300</ele>
        <time>2019-03-13T12:58:07Z</time>
      </trkpt>
      <trkpt lat="43.53399" lon="6.39893">
        <ele>302</ele>
        <time>2019-03-13T12:58:37Z</time>
      </trkpt>
      <trkpt lat="43.53393" lon="6.39888">
        <ele>303</ele>
        <time>2019-03-13T12:59:17Z</time>
      </trkpt>
      <trkpt lat="43.53396" lon="6.39878">
        <ele>304</ele>
        <time>2019-03-13T12:59:29Z</time>
      </trkpt>
      <trkpt lat="43.5339" lon="6.39873">
        <ele>308</ele>
        <time>2019-03-13T12:59:40Z</time>
      </trkpt>
      <trkpt lat="43.53382" lon="6.39874">
        <ele>308</ele>
        <time>2019-03-13T12:59:48Z</time>
      </trkpt>
      <trkpt lat="43.53376" lon="6.39875">
        <ele>310</ele>
        <time>2019-03-13T12:59:53Z</time>
      </trkpt>
      <trkpt lat="43.53369" lon="6.3988">
        <ele>310</ele>
        <time>2019-03-13T13:00:04Z</time>
      </trkpt>
      <trkpt lat="43.53363" lon="6.39882">
        <ele>312</ele>
        <time>2019-03-13T13:00:18Z</time>
      </trkpt>
      <trkpt lat="43.53355" lon="6.39882">
        <ele>313</ele>
        <time>2019-03-13T13:00:27Z</time>
      </trkpt>
      <trkpt lat="43.53359" lon="6.39879">
        <ele>326</ele>
        <time>2019-03-13T13:02:03Z</time>
      </trkpt>
      <trkpt lat="43.53365" lon="6.39865">
        <ele>327</ele>
        <time>2019-03-13T13:02:32Z</time>
      </trkpt>
      <trkpt lat="43.5336" lon="6.3986">
        <ele>325</ele>
        <time>2019-03-13T13:02:45Z</time>
      </trkpt>
      <trkpt lat="43.53359" lon="6.3985">
        <ele>324</ele>
        <time>2019-03-13T13:02:49Z</time>
      </trkpt>
      <trkpt lat="43.53357" lon="6.3984">
        <ele>320</ele>
        <time>2019-03-13T13:02:59Z</time>
      </trkpt>
      <trkpt lat="43.53356" lon="6.39823">
        <ele>321</ele>
        <time>2019-03-13T13:03:17Z</time>
      </trkpt>
      <trkpt lat="43.53355" lon="6.39814">
        <ele>321</ele>
        <time>2019-03-13T13:03:23Z</time>
      </trkpt>
      <trkpt lat="43.53355" lon="6.39805">
        <ele>323</ele>
        <time>2019-03-13T13:03:30Z</time>
      </trkpt>
      <trkpt lat="43.53356" lon="6.39798">
        <ele>324</ele>
        <time>2019-03-13T13:03:40Z</time>
      </trkpt>
      <trkpt lat="43.53356" lon="6.3979">
        <ele>326</ele>
        <time>2019-03-13T13:03:45Z</time>
      </trkpt>
      <trkpt lat="43.53357" lon="6.39781">
        <ele>325</ele>
        <time>2019-03-13T13:03:56Z</time>
      </trkpt>
      <trkpt lat="43.5336" lon="6.39774">
        <ele>324</ele>
        <time>2019-03-13T13:04:03Z</time>
      </trkpt>
      <trkpt lat="43.53365" lon="6.39767">
        <ele>344</ele>
        <time>2019-03-13T13:08:44Z</time>
      </trkpt>
      <trkpt lat="43.53371" lon="6.39771">
        <ele>334</ele>
        <time>2019-03-13T13:10:30Z</time>
      </trkpt>
      <trkpt lat="43.53379" lon="6.3978">
        <ele>328</ele>
        <time>2019-03-13T13:10:39Z</time>
      </trkpt>
      <trkpt lat="43.53384" lon="6.39783">
        <ele>327</ele>
        <time>2019-03-13T13:10:44Z</time>
      </trkpt>
      <trkpt lat="43.53387" lon="6.39789">
        <ele>325</ele>
        <time>2019-03-13T13:10:50Z</time>
      </trkpt>
      <trkpt lat="43.5339" lon="6.39795">
        <ele>325</ele>
        <time>2019-03-13T13:10:56Z</time>
      </trkpt>
      <trkpt lat="43.53395" lon="6.39804">
        <ele>329</ele>
        <time>2019-03-13T13:11:11Z</time>
      </trkpt>
      <trkpt lat="43.534" lon="6.39812">
        <ele>329</ele>
        <time>2019-03-13T13:11:20Z</time>
      </trkpt>
      <trkpt lat="43.53407" lon="6.39815">
        <ele>326</ele>
        <time>2019-03-13T13:11:41Z</time>
      </trkpt>
      <trkpt lat="43.53414" lon="6.3981">
        <ele>325</ele>
        <time>2019-03-13T13:11:49Z</time>
      </trkpt>
      <trkpt lat="43.53422" lon="6.39807">
        <ele>323</ele>
        <time>2019-03-13T13:12:04Z</time>
      </trkpt>
      <trkpt lat="43.53428" lon="6.39801">
        <ele>317</ele>
        <time>2019-03-13T13:12:12Z</time>
      </trkpt>
      <trkpt lat="43.53432" lon="6.39794">
        <ele>316</ele>
        <time>2019-03-13T13:12:17Z</time>
      </trkpt>
      <trkpt lat="43.53438" lon="6.39788">
        <ele>313</ele>
        <time>2019-03-13T13:12:23Z</time>
      </trkpt>
      <trkpt lat="43.53441" lon="6.3978">
        <ele>319</ele>
        <time>2019-03-13T13:14:07Z</time>
      </trkpt>
      <trkpt lat="43.53444" lon="6.39771">
        <ele>318</ele>
        <time>2019-03-13T13:14:17Z</time>
      </trkpt>
      <trkpt lat="43.5344" lon="6.39736">
        <ele>317</ele>
        <time>2019-03-13T13:14:47Z</time>
      </trkpt>
      <trkpt lat="43.53435" lon="6.39727">
        <ele>315</ele>
        <time>2019-03-13T13:14:55Z</time>
      </trkpt>
      <trkpt lat="43.53422" lon="6.39712">
        <ele>315</ele>
        <time>2019-03-13T13:15:36Z</time>
      </trkpt>
      <trkpt lat="43.53418" lon="6.39697">
        <ele>318</ele>
        <time>2019-03-13T13:15:47Z</time>
      </trkpt>
      <trkpt lat="43.53413" lon="6.39693">
        <ele>319</ele>
        <time>2019-03-13T13:15:55Z</time>
      </trkpt>
      <trkpt lat="43.53408" lon="6.39684">
        <ele>320</ele>
        <time>2019-03-13T13:16:07Z</time>
      </trkpt>
      <trkpt lat="43.53404" lon="6.39676">
        <ele>322</ele>
        <time>2019-03-13T13:16:17Z</time>
      </trkpt>
      <trkpt lat="43.53394" lon="6.39664">
        <ele>323</ele>
        <time>2019-03-13T13:16:52Z</time>
      </trkpt>
      <trkpt lat="43.5339" lon="6.39657">
        <ele>318</ele>
        <time>2019-03-13T13:16:59Z</time>
      </trkpt>
      <trkpt lat="43.53389" lon="6.39649">
        <ele>319</ele>
        <time>2019-03-13T13:17:07Z</time>
      </trkpt>
      <trkpt lat="43.53388" lon="6.39641">
        <ele>319</ele>
        <time>2019-03-13T13:17:40Z</time>
      </trkpt>
      <trkpt lat="43.53383" lon="6.3964">
        <ele>319</ele>
        <time>2019-03-13T13:17:56Z</time>
      </trkpt>
      <trkpt lat="43.53377" lon="6.39637">
        <ele>317</ele>
        <time>2019-03-13T13:18:02Z</time>
      </trkpt>
      <trkpt lat="43.53371" lon="6.39633">
        <ele>316</ele>
        <time>2019-03-13T13:18:07Z</time>
      </trkpt>
      <trkpt lat="43.53364" lon="6.3963">
        <ele>316</ele>
        <time>2019-03-13T13:18:13Z</time>
      </trkpt>
      <trkpt lat="43.53353" lon="6.39631">
        <ele>316</ele>
        <time>2019-03-13T13:18:20Z</time>
      </trkpt>
      <trkpt lat="43.53334" lon="6.39621">
        <ele>313</ele>
        <time>2019-03-13T13:18:36Z</time>
      </trkpt>
      <trkpt lat="43.53315" lon="6.39597">
        <ele>312</ele>
        <time>2019-03-13T13:18:56Z</time>
      </trkpt>
      <trkpt lat="43.53308" lon="6.39585">
        <ele>313</ele>
        <time>2019-03-13T13:19:04Z</time>
      </trkpt>
      <trkpt lat="43.53307" lon="6.39574">
        <ele>313</ele>
        <time>2019-03-13T13:19:11Z</time>
      </trkpt>
      <trkpt lat="43.53305" lon="6.39565">
        <ele>320</ele>
        <time>2019-03-13T13:19:33Z</time>
      </trkpt>
      <trkpt lat="43.53306" lon="6.39555">
        <ele>322</ele>
        <time>2019-03-13T13:19:56Z</time>
      </trkpt>
      <trkpt lat="43.5332" lon="6.39559">
        <ele>323</ele>
        <time>2019-03-13T13:20:22Z</time>
      </trkpt>
      <trkpt lat="43.53328" lon="6.39563">
        <ele>322</ele>
        <time>2019-03-13T13:20:33Z</time>
      </trkpt>
      <trkpt lat="43.53334" lon="6.39569">
        <ele>321</ele>
        <time>2019-03-13T13:20:43Z</time>
      </trkpt>
      <trkpt lat="43.53341" lon="6.39571">
        <ele>321</ele>
        <time>2019-03-13T13:20:52Z</time>
      </trkpt>
      <trkpt lat="43.53366" lon="6.39585">
        <ele>323</ele>
        <time>2019-03-13T13:21:25Z</time>
      </trkpt>
      <trkpt lat="43.53374" lon="6.39585">
        <ele>322</ele>
        <time>2019-03-13T13:21:32Z</time>
      </trkpt>
      <trkpt lat="43.53389" lon="6.39573">
        <ele>321</ele>
        <time>2019-03-13T13:21:48Z</time>
      </trkpt>
      <trkpt lat="43.53393" lon="6.39568">
        <ele>318</ele>
        <time>2019-03-13T13:22:09Z</time>
      </trkpt>
      <trkpt lat="43.53399" lon="6.39563">
        <ele>317</ele>
        <time>2019-03-13T13:22:23Z</time>
      </trkpt>
      <trkpt lat="43.5341" lon="6.39546">
        <ele>318</ele>
        <time>2019-03-13T13:22:54Z</time>
      </trkpt>
      <trkpt lat="43.53411" lon="6.39539">
        <ele>318</ele>
        <time>2019-03-13T13:23:02Z</time>
      </trkpt>
      <trkpt lat="43.53414" lon="6.3953">
        <ele>319</ele>
        <time>2019-03-13T13:23:10Z</time>
      </trkpt>
      <trkpt lat="43.53415" lon="6.39519">
        <ele>319</ele>
        <time>2019-03-13T13:23:16Z</time>
      </trkpt>
      <trkpt lat="43.53417" lon="6.39502">
        <ele>320</ele>
        <time>2019-03-13T13:23:47Z</time>
      </trkpt>
      <trkpt lat="43.53423" lon="6.39481">
        <ele>320</ele>
        <time>2019-03-13T13:24:13Z</time>
      </trkpt>
      <trkpt lat="43.53424" lon="6.39473">
        <ele>322</ele>
        <time>2019-03-13T13:24:21Z</time>
      </trkpt>
      <trkpt lat="43.53426" lon="6.39463">
        <ele>322</ele>
        <time>2019-03-13T13:24:30Z</time>
      </trkpt>
      <trkpt lat="43.53429" lon="6.39448">
        <ele>323</ele>
        <time>2019-03-13T13:24:41Z</time>
      </trkpt>
      <trkpt lat="43.53428" lon="6.39439">
        <ele>325</ele>
        <time>2019-03-13T13:24:48Z</time>
      </trkpt>
      <trkpt lat="43.53429" lon="6.39429">
        <ele>325</ele>
        <time>2019-03-13T13:24:58Z</time>
      </trkpt>
      <trkpt lat="43.5343" lon="6.39417">
        <ele>326</ele>
        <time>2019-03-13T13:25:07Z</time>
      </trkpt>
      <trkpt lat="43.53431" lon="6.39407">
        <ele>326</ele>
        <time>2019-03-13T13:25:16Z</time>
      </trkpt>
      <trkpt lat="43.53435" lon="6.39398">
        <ele>328</ele>
        <time>2019-03-13T13:25:25Z</time>
      </trkpt>
      <trkpt lat="43.53438" lon="6.39391">
        <ele>325</ele>
        <time>2019-03-13T13:25:32Z</time>
      </trkpt>
      <trkpt lat="43.53443" lon="6.39383">
        <ele>324</ele>
        <time>2019-03-13T13:25:41Z</time>
      </trkpt>
      <trkpt lat="43.53455" lon="6.39378">
        <ele>323</ele>
        <time>2019-03-13T13:26:12Z</time>
      </trkpt>
      <trkpt lat="43.53462" lon="6.39384">
        <ele>323</ele>
        <time>2019-03-13T13:26:22Z</time>
      </trkpt>
      <trkpt lat="43.53468" lon="6.39382">
        <ele>323</ele>
        <time>2019-03-13T13:26:29Z</time>
      </trkpt>
      <trkpt lat="43.53472" lon="6.3938">
        <ele>322</ele>
        <time>2019-03-13T13:26:36Z</time>
      </trkpt>
      <trkpt lat="43.53478" lon="6.39378">
        <ele>323</ele>
        <time>2019-03-13T13:27:21Z</time>
      </trkpt>
      <trkpt lat="43.53497" lon="6.39386">
        <ele>319</ele>
        <time>2019-03-13T13:27:39Z</time>
      </trkpt>
      <trkpt lat="43.53513" lon="6.39408">
        <ele>319</ele>
        <time>2019-03-13T13:27:59Z</time>
      </trkpt>
      <trkpt lat="43.53518" lon="6.39409">
        <ele>317</ele>
        <time>2019-03-13T13:28:04Z</time>
      </trkpt>
      <trkpt lat="43.5352" lon="6.39403">
        <ele>315</ele>
        <time>2019-03-13T13:28:10Z</time>
      </trkpt>
      <trkpt lat="43.5352" lon="6.39397">
        <ele>313</ele>
        <time>2019-03-13T13:28:13Z</time>
      </trkpt>
      <trkpt lat="43.53529" lon="6.39364">
        <ele>308</ele>
        <time>2019-03-13T13:28:40Z</time>
      </trkpt>
      <trkpt lat="43.53534" lon="6.39359">
        <ele>307</ele>
        <time>2019-03-13T13:28:44Z</time>
      </trkpt>
      <trkpt lat="43.53547" lon="6.39344">
        <ele>305</ele>
        <time>2019-03-13T13:28:56Z</time>
      </trkpt>
      <trkpt lat="43.53562" lon="6.39331">
        <ele>306</ele>
        <time>2019-03-13T13:29:12Z</time>
      </trkpt>
      <trkpt lat="43.53584" lon="6.39319">
        <ele>303</ele>
        <time>2019-03-13T13:29:30Z</time>
      </trkpt>
      <trkpt lat="43.5362" lon="6.39301">
        <ele>303</ele>
        <time>2019-03-13T13:30:05Z</time>
      </trkpt>
      <trkpt lat="43.53623" lon="6.39299">
        <ele>303</ele>
        <time>2019-03-13T13:30:09Z</time>
      </trkpt>
      <trkpt lat="43.53638" lon="6.3929">
        <ele>305</ele>
        <time>2019-03-13T13:30:25Z</time>
      </trkpt>
      <trkpt lat="43.5366" lon="6.39278">
        <ele>305</ele>
        <time>2019-03-13T13:30:47Z</time>
      </trkpt>
      <trkpt lat="43.53669" lon="6.39273">
        <ele>306</ele>
        <time>2019-03-13T13:31:07Z</time>
      </trkpt>
      <trkpt lat="43.5368" lon="6.39281">
        <ele>308</ele>
        <time>2019-03-13T13:31:21Z</time>
      </trkpt>
      <trkpt lat="43.53687" lon="6.39281">
        <ele>308</ele>
        <time>2019-03-13T13:31:26Z</time>
      </trkpt>
      <trkpt lat="43.53702" lon="6.39282">
        <ele>305</ele>
        <time>2019-03-13T13:31:38Z</time>
      </trkpt>
      <trkpt lat="43.53713" lon="6.39274">
        <ele>304</ele>
        <time>2019-03-13T13:31:51Z</time>
      </trkpt>
      <trkpt lat="43.5372" lon="6.39263">
        <ele>303</ele>
        <time>2019-03-13T13:31:59Z</time>
      </trkpt>
      <trkpt lat="43.53727" lon="6.39258">
        <ele>302</ele>
        <time>2019-03-13T13:32:05Z</time>
      </trkpt>
      <trkpt lat="43.53731" lon="6.39258">
        <ele>302</ele>
        <time>2019-03-13T13:32:08Z</time>
      </trkpt>
      <trkpt lat="43.53739" lon="6.39261">
        <ele>300</ele>
        <time>2019-03-13T13:32:16Z</time>
      </trkpt>
      <trkpt lat="43.53742" lon="6.39265">
        <ele>300</ele>
        <time>2019-03-13T13:32:19Z</time>
      </trkpt>
      <trkpt lat="43.53748" lon="6.3927">
        <ele>301</ele>
        <time>2019-03-13T13:32:25Z</time>
      </trkpt>
      <trkpt lat="43.53757" lon="6.39276">
        <ele>301</ele>
        <time>2019-03-13T13:32:33Z</time>
      </trkpt>
      <trkpt lat="43.53787" lon="6.39284">
        <ele>301</ele>
        <time>2019-03-13T13:33:01Z</time>
      </trkpt>
      <trkpt lat="43.53794" lon="6.39285">
        <ele>301</ele>
        <time>2019-03-13T13:33:07Z</time>
      </trkpt>
      <trkpt lat="43.53799" lon="6.39287">
        <ele>300</ele>
        <time>2019-03-13T13:33:13Z</time>
      </trkpt>
      <trkpt lat="43.53804" lon="6.3929">
        <ele>299</ele>
        <time>2019-03-13T13:33:19Z</time>
      </trkpt>
      <trkpt lat="43.53809" lon="6.39293">
        <ele>300</ele>
        <time>2019-03-13T13:33:23Z</time>
      </trkpt>
      <trkpt lat="43.53846" lon="6.39321">
        <ele>302</ele>
        <time>2019-03-13T13:33:55Z</time>
      </trkpt>
      <trkpt lat="43.53869" lon="6.39336">
        <ele>305</ele>
        <time>2019-03-13T13:34:16Z</time>
      </trkpt>
      <trkpt lat="43.53879" lon="6.39335">
        <ele>304</ele>
        <time>2019-03-13T13:34:24Z</time>
      </trkpt>
      <trkpt lat="43.53889" lon="6.39331">
        <ele>304</ele>
        <time>2019-03-13T13:34:34Z</time>
      </trkpt>
      <trkpt lat="43.53901" lon="6.39324">
        <ele>306</ele>
        <time>2019-03-13T13:34:45Z</time>
      </trkpt>
      <trkpt lat="43.53928" lon="6.39309">
        <ele>307</ele>
        <time>2019-03-13T13:35:21Z</time>
      </trkpt>
      <trkpt lat="43.53961" lon="6.393">
        <ele>311</ele>
        <time>2019-03-13T13:35:51Z</time>
      </trkpt>
      <trkpt lat="43.53967" lon="6.39297">
        <ele>311</ele>
        <time>2019-03-13T13:35:57Z</time>
      </trkpt>
      <trkpt lat="43.53974" lon="6.39297">
        <ele>311</ele>
        <time>2019-03-13T13:36:02Z</time>
      </trkpt>
      <trkpt lat="43.53983" lon="6.39294">
        <ele>312</ele>
        <time>2019-03-13T13:36:12Z</time>
      </trkpt>
      <trkpt lat="43.5399" lon="6.3929">
        <ele>314</ele>
        <time>2019-03-13T13:36:17Z</time>
      </trkpt>
      <trkpt lat="43.53997" lon="6.39283">
        <ele>313</ele>
        <time>2019-03-13T13:36:23Z</time>
      </trkpt>
      <trkpt lat="43.54004" lon="6.39279">
        <ele>314</ele>
        <time>2019-03-13T13:36:29Z</time>
      </trkpt>
      <trkpt lat="43.54015" lon="6.39267">
        <ele>315</ele>
        <time>2019-03-13T13:36:41Z</time>
      </trkpt>
      <trkpt lat="43.54021" lon="6.39262">
        <ele>315</ele>
        <time>2019-03-13T13:36:45Z</time>
      </trkpt>
      <trkpt lat="43.54028" lon="6.39257">
        <ele>314</ele>
        <time>2019-03-13T13:36:51Z</time>
      </trkpt>
      <trkpt lat="43.54035" lon="6.39252">
        <ele>314</ele>
        <time>2019-03-13T13:36:57Z</time>
      </trkpt>
      <trkpt lat="43.54046" lon="6.39238">
        <ele>315</ele>
        <time>2019-03-13T13:37:10Z</time>
      </trkpt>
      <trkpt lat="43.54052" lon="6.39235">
        <ele>315</ele>
        <time>2019-03-13T13:37:17Z</time>
      </trkpt>
      <trkpt lat="43.54064" lon="6.39231">
        <ele>318</ele>
        <time>2019-03-13T13:37:27Z</time>
      </trkpt>
      <trkpt lat="43.54071" lon="6.39229">
        <ele>319</ele>
        <time>2019-03-13T13:37:34Z</time>
      </trkpt>
      <trkpt lat="43.54077" lon="6.39231">
        <ele>319</ele>
        <time>2019-03-13T13:37:38Z</time>
      </trkpt>
      <trkpt lat="43.54121" lon="6.3923">
        <ele>313</ele>
        <time>2019-03-13T13:38:12Z</time>
      </trkpt>
      <trkpt lat="43.54164" lon="6.39238">
        <ele>312</ele>
        <time>2019-03-13T13:38:49Z</time>
      </trkpt>
      <trkpt lat="43.5417" lon="6.39237">
        <ele>311</ele>
        <time>2019-03-13T13:38:54Z</time>
      </trkpt>
      <trkpt lat="43.54182" lon="6.39232">
        <ele>311</ele>
        <time>2019-03-13T13:39:04Z</time>
      </trkpt>
      <trkpt lat="43.54185" lon="6.39227">
        <ele>311</ele>
        <time>2019-03-13T13:39:08Z</time>
      </trkpt>
      <trkpt lat="43.542" lon="6.39215">
        <ele>312</ele>
        <time>2019-03-13T13:39:22Z</time>
      </trkpt>
      <trkpt lat="43.54205" lon="6.39213">
        <ele>312</ele>
        <time>2019-03-13T13:39:27Z</time>
      </trkpt>
      <trkpt lat="43.54217" lon="6.39214">
        <ele>313</ele>
        <time>2019-03-13T13:39:37Z</time>
      </trkpt>
      <trkpt lat="43.54222" lon="6.39213">
        <ele>313</ele>
        <time>2019-03-13T13:39:42Z</time>
      </trkpt>
      <trkpt lat="43.54246" lon="6.39219">
        <ele>318</ele>
        <time>2019-03-13T13:40:28Z</time>
      </trkpt>
      <trkpt lat="43.54251" lon="6.39218">
        <ele>317</ele>
        <time>2019-03-13T13:41:20Z</time>
      </trkpt>
      <trkpt lat="43.54278" lon="6.39211">
        <ele>319</ele>
        <time>2019-03-13T13:41:50Z</time>
      </trkpt>
      <trkpt lat="43.54285" lon="6.39211">
        <ele>321</ele>
        <time>2019-03-13T13:41:57Z</time>
      </trkpt>
      <trkpt lat="43.54289" lon="6.39212">
        <ele>322</ele>
        <time>2019-03-13T13:42:03Z</time>
      </trkpt>
      <trkpt lat="43.54309" lon="6.39202">
        <ele>323</ele>
        <time>2019-03-13T13:42:30Z</time>
      </trkpt>
      <trkpt lat="43.54327" lon="6.39175">
        <ele>324</ele>
        <time>2019-03-13T13:42:54Z</time>
      </trkpt>
      <trkpt lat="43.5433" lon="6.39167">
        <ele>325</ele>
        <time>2019-03-13T13:43:00Z</time>
      </trkpt>
      <trkpt lat="43.54334" lon="6.39152">
        <ele>327</ele>
        <time>2019-03-13T13:43:10Z</time>
      </trkpt>
      <trkpt lat="43.54343" lon="6.39143">
        <ele>327</ele>
        <time>2019-03-13T13:43:19Z</time>
      </trkpt>
      <trkpt lat="43.54348" lon="6.39137">
        <ele>327</ele>
        <time>2019-03-13T13:43:25Z</time>
      </trkpt>
      <trkpt lat="43.54352" lon="6.3913">
        <ele>326</ele>
        <time>2019-03-13T13:43:31Z</time>
      </trkpt>
      <trkpt lat="43.54357" lon="6.39125">
        <ele>327</ele>
        <time>2019-03-13T13:43:37Z</time>
      </trkpt>
      <trkpt lat="43.54363" lon="6.39114">
        <ele>328</ele>
        <time>2019-03-13T13:43:47Z</time>
      </trkpt>
      <trkpt lat="43.54365" lon="6.39107">
        <ele>329</ele>
        <time>2019-03-13T13:43:52Z</time>
      </trkpt>
      <trkpt lat="43.54369" lon="6.39103">
        <ele>330</ele>
        <time>2019-03-13T13:43:58Z</time>
      </trkpt>
      <trkpt lat="43.54388" lon="6.39098">
        <ele>330</ele>
        <time>2019-03-13T13:44:18Z</time>
      </trkpt>
      <trkpt lat="43.54426" lon="6.39099">
        <ele>327</ele>
        <time>2019-03-13T13:44:51Z</time>
      </trkpt>
      <trkpt lat="43.54451" lon="6.3909">
        <ele>325</ele>
        <time>2019-03-13T13:45:13Z</time>
      </trkpt>
      <trkpt lat="43.54463" lon="6.39091">
        <ele>324</ele>
        <time>2019-03-13T13:45:23Z</time>
      </trkpt>
      <trkpt lat="43.54483" lon="6.39105">
        <ele>324</ele>
        <time>2019-03-13T13:45:43Z</time>
      </trkpt>
      <trkpt lat="43.54494" lon="6.39114">
        <ele>326</ele>
        <time>2019-03-13T13:45:52Z</time>
      </trkpt>
      <trkpt lat="43.54499" lon="6.39117">
        <ele>326</ele>
        <time>2019-03-13T13:45:57Z</time>
      </trkpt>
      <trkpt lat="43.54504" lon="6.39122">
        <ele>326</ele>
        <time>2019-03-13T13:46:02Z</time>
      </trkpt>
      <trkpt lat="43.54533" lon="6.39134">
        <ele>328</ele>
        <time>2019-03-13T13:46:30Z</time>
      </trkpt>
      <trkpt lat="43.54549" lon="6.39136">
        <ele>330</ele>
        <time>2019-03-13T13:46:48Z</time>
      </trkpt>
      <trkpt lat="43.54558" lon="6.39132">
        <ele>332</ele>
        <time>2019-03-13T13:46:57Z</time>
      </trkpt>
      <trkpt lat="43.54594" lon="6.39107">
        <ele>331</ele>
        <time>2019-03-13T13:47:32Z</time>
      </trkpt>
      <trkpt lat="43.54601" lon="6.39103">
        <ele>331</ele>
        <time>2019-03-13T13:47:40Z</time>
      </trkpt>
      <trkpt lat="43.54623" lon="6.39091">
        <ele>333</ele>
        <time>2019-03-13T13:48:01Z</time>
      </trkpt>
      <trkpt lat="43.54629" lon="6.39086">
        <ele>332</ele>
        <time>2019-03-13T13:48:08Z</time>
      </trkpt>
      <trkpt lat="43.54636" lon="6.39081">
        <ele>332</ele>
        <time>2019-03-13T13:48:15Z</time>
      </trkpt>
      <trkpt lat="43.54655" lon="6.39059">
        <ele>333</ele>
        <time>2019-03-13T13:48:36Z</time>
      </trkpt>
      <trkpt lat="43.54658" lon="6.39049">
        <ele>333</ele>
        <time>2019-03-13T13:48:44Z</time>
      </trkpt>
      <trkpt lat="43.54669" lon="6.39023">
        <ele>331</ele>
        <time>2019-03-13T13:49:02Z</time>
      </trkpt>
      <trkpt lat="43.54695" lon="6.38988">
        <ele>332</ele>
        <time>2019-03-13T13:49:32Z</time>
      </trkpt>
      <trkpt lat="43.547" lon="6.38981">
        <ele>333</ele>
        <time>2019-03-13T13:49:39Z</time>
      </trkpt>
      <trkpt lat="43.54704" lon="6.38974">
        <ele>333</ele>
        <time>2019-03-13T13:49:45Z</time>
      </trkpt>
      <trkpt lat="43.54708" lon="6.38966">
        <ele>333</ele>
        <time>2019-03-13T13:49:50Z</time>
      </trkpt>
      <trkpt lat="43.5473" lon="6.3892">
        <ele>334</ele>
        <time>2019-03-13T13:50:25Z</time>
      </trkpt>
      <trkpt lat="43.54753" lon="6.3888">
        <ele>337</ele>
        <time>2019-03-13T13:50:56Z</time>
      </trkpt>
      <trkpt lat="43.54762" lon="6.38865">
        <ele>338</ele>
        <time>2019-03-13T13:51:10Z</time>
      </trkpt>
      <trkpt lat="43.5478" lon="6.38826">
        <ele>340</ele>
        <time>2019-03-13T13:51:43Z</time>
      </trkpt>
      <trkpt lat="43.5479" lon="6.3881">
        <ele>340</ele>
        <time>2019-03-13T13:51:55Z</time>
      </trkpt>
      <trkpt lat="43.54794" lon="6.38803">
        <ele>340</ele>
        <time>2019-03-13T13:52:01Z</time>
      </trkpt>
      <trkpt lat="43.54803" lon="6.3879">
        <ele>341</ele>
        <time>2019-03-13T13:52:11Z</time>
      </trkpt>
      <trkpt lat="43.54808" lon="6.38785">
        <ele>343</ele>
        <time>2019-03-13T13:52:16Z</time>
      </trkpt>
      <trkpt lat="43.54813" lon="6.38778">
        <ele>343</ele>
        <time>2019-03-13T13:52:22Z</time>
      </trkpt>
      <trkpt lat="43.5482" lon="6.38774">
        <ele>343</ele>
        <time>2019-03-13T13:52:29Z</time>
      </trkpt>
      <trkpt lat="43.54826" lon="6.38774">
        <ele>342</ele>
        <time>2019-03-13T13:52:34Z</time>
      </trkpt>
      <trkpt lat="43.54844" lon="6.38787">
        <ele>343</ele>
        <time>2019-03-13T13:52:52Z</time>
      </trkpt>
      <trkpt lat="43.54853" lon="6.3879">
        <ele>344</ele>
        <time>2019-03-13T13:52:59Z</time>
      </trkpt>
      <trkpt lat="43.54858" lon="6.38785">
        <ele>344</ele>
        <time>2019-03-13T13:53:05Z</time>
      </trkpt>
      <trkpt lat="43.5488" lon="6.38743">
        <ele>346</ele>
        <time>2019-03-13T13:53:39Z</time>
      </trkpt>
      <trkpt lat="43.54884" lon="6.38737">
        <ele>346</ele>
        <time>2019-03-13T13:53:43Z</time>
      </trkpt>
      <trkpt lat="43.54888" lon="6.38729">
        <ele>347</ele>
        <time>2019-03-13T13:53:50Z</time>
      </trkpt>
      <trkpt lat="43.54893" lon="6.38722">
        <ele>349</ele>
        <time>2019-03-13T13:53:57Z</time>
      </trkpt>
      <trkpt lat="43.54901" lon="6.38713">
        <ele>350</ele>
        <time>2019-03-13T13:54:07Z</time>
      </trkpt>
      <trkpt lat="43.54907" lon="6.3871">
        <ele>351</ele>
        <time>2019-03-13T13:54:13Z</time>
      </trkpt>
      <trkpt lat="43.54914" lon="6.38706">
        <ele>351</ele>
        <time>2019-03-13T13:54:22Z</time>
      </trkpt>
      <trkpt lat="43.5492" lon="6.38701">
        <ele>351</ele>
        <time>2019-03-13T13:54:29Z</time>
      </trkpt>
      <trkpt lat="43.54927" lon="6.38697">
        <ele>350</ele>
        <time>2019-03-13T13:54:36Z</time>
      </trkpt>
      <trkpt lat="43.54931" lon="6.38689">
        <ele>351</ele>
        <time>2019-03-13T13:54:44Z</time>
      </trkpt>
      <trkpt lat="43.54946" lon="6.38667">
        <ele>355</ele>
        <time>2019-03-13T13:55:08Z</time>
      </trkpt>
      <trkpt lat="43.5496" lon="6.38664">
        <ele>357</ele>
        <time>2019-03-13T13:55:21Z</time>
      </trkpt>
      <trkpt lat="43.54975" lon="6.38664">
        <ele>357</ele>
        <time>2019-03-13T13:55:35Z</time>
      </trkpt>
      <trkpt lat="43.54989" lon="6.38662">
        <ele>358</ele>
        <time>2019-03-13T13:55:49Z</time>
      </trkpt>
      <trkpt lat="43.55019" lon="6.38663">
        <ele>362</ele>
        <time>2019-03-13T13:56:15Z</time>
      </trkpt>
      <trkpt lat="43.55026" lon="6.38665">
        <ele>363</ele>
        <time>2019-03-13T13:56:22Z</time>
      </trkpt>
      <trkpt lat="43.55033" lon="6.38663">
        <ele>363</ele>
        <time>2019-03-13T13:56:28Z</time>
      </trkpt>
      <trkpt lat="43.55038" lon="6.38659">
        <ele>363</ele>
        <time>2019-03-13T13:56:34Z</time>
      </trkpt>
      <trkpt lat="43.55052" lon="6.3865">
        <ele>362</ele>
        <time>2019-03-13T13:56:46Z</time>
      </trkpt>
      <trkpt lat="43.55059" lon="6.38648">
        <ele>362</ele>
        <time>2019-03-13T13:56:51Z</time>
      </trkpt>
      <trkpt lat="43.55064" lon="6.38644">
        <ele>363</ele>
        <time>2019-03-13T13:56:55Z</time>
      </trkpt>
      <trkpt lat="43.55089" lon="6.38607">
        <ele>363</ele>
        <time>2019-03-13T13:57:31Z</time>
      </trkpt>
      <trkpt lat="43.55107" lon="6.38591">
        <ele>363</ele>
        <time>2019-03-13T13:57:51Z</time>
      </trkpt>
      <trkpt lat="43.55119" lon="6.38585">
        <ele>366</ele>
        <time>2019-03-13T13:58:04Z</time>
      </trkpt>
      <trkpt lat="43.55143" lon="6.38577">
        <ele>368</ele>
        <time>2019-03-13T13:58:31Z</time>
      </trkpt>
      <trkpt lat="43.55156" lon="6.38588">
        <ele>368</ele>
        <time>2019-03-13T13:58:47Z</time>
      </trkpt>
      <trkpt lat="43.55179" lon="6.38592">
        <ele>373</ele>
        <time>2019-03-13T13:59:10Z</time>
      </trkpt>
      <trkpt lat="43.55207" lon="6.3858">
        <ele>378</ele>
        <time>2019-03-13T13:59:41Z</time>
      </trkpt>
      <trkpt lat="43.55221" lon="6.38573">
        <ele>378</ele>
        <time>2019-03-13T13:59:58Z</time>
      </trkpt>
      <trkpt lat="43.55227" lon="6.38568">
        <ele>378</ele>
        <time>2019-03-13T14:00:06Z</time>
      </trkpt>
      <trkpt lat="43.55233" lon="6.38565">
        <ele>379</ele>
        <time>2019-03-13T14:00:14Z</time>
      </trkpt>
      <trkpt lat="43.55239" lon="6.38559">
        <ele>379</ele>
        <time>2019-03-13T14:00:21Z</time>
      </trkpt>
      <trkpt lat="43.55244" lon="6.38554">
        <ele>378</ele>
        <time>2019-03-13T14:00:27Z</time>
      </trkpt>
      <trkpt lat="43.55251" lon="6.38547">
        <ele>379</ele>
        <time>2019-03-13T14:00:35Z</time>
      </trkpt>
      <trkpt lat="43.55256" lon="6.38538">
        <ele>381</ele>
        <time>2019-03-13T14:00:42Z</time>
      </trkpt>
      <trkpt lat="43.55261" lon="6.38533">
        <ele>381</ele>
        <time>2019-03-13T14:00:50Z</time>
      </trkpt>
      <trkpt lat="43.5527" lon="6.38515">
        <ele>384</ele>
        <time>2019-03-13T14:01:07Z</time>
      </trkpt>
      <trkpt lat="43.55274" lon="6.38506">
        <ele>385</ele>
        <time>2019-03-13T14:01:16Z</time>
      </trkpt>
      <trkpt lat="43.55278" lon="6.38498">
        <ele>385</ele>
        <time>2019-03-13T14:01:23Z</time>
      </trkpt>
      <trkpt lat="43.55283" lon="6.38492">
        <ele>386</ele>
        <time>2019-03-13T14:01:31Z</time>
      </trkpt>
      <trkpt lat="43.55289" lon="6.38485">
        <ele>389</ele>
        <time>2019-03-13T14:01:43Z</time>
      </trkpt>
      <trkpt lat="43.55297" lon="6.3848">
        <ele>389</ele>
        <time>2019-03-13T14:01:53Z</time>
      </trkpt>
      <trkpt lat="43.5531" lon="6.38472">
        <ele>390</ele>
        <time>2019-03-13T14:02:09Z</time>
      </trkpt>
      <trkpt lat="43.55315" lon="6.38466">
        <ele>391</ele>
        <time>2019-03-13T14:02:14Z</time>
      </trkpt>
      <trkpt lat="43.55318" lon="6.3846">
        <ele>391</ele>
        <time>2019-03-13T14:02:20Z</time>
      </trkpt>
      <trkpt lat="43.55322" lon="6.38453">
        <ele>391</ele>
        <time>2019-03-13T14:02:27Z</time>
      </trkpt>
      <trkpt lat="43.55327" lon="6.38446">
        <ele>391</ele>
        <time>2019-03-13T14:02:36Z</time>
      </trkpt>
      <trkpt lat="43.5533" lon="6.38437">
        <ele>392</ele>
        <time>2019-03-13T14:02:47Z</time>
      </trkpt>
      <trkpt lat="43.55336" lon="6.38431">
        <ele>391</ele>
        <time>2019-03-13T14:02:56Z</time>
      </trkpt>
      <trkpt lat="43.55342" lon="6.38427">
        <ele>392</ele>
        <time>2019-03-13T14:03:04Z</time>
      </trkpt>
      <trkpt lat="43.55348" lon="6.38422">
        <ele>392</ele>
        <time>2019-03-13T14:03:12Z</time>
      </trkpt>
      <trkpt lat="43.55371" lon="6.38413">
        <ele>392</ele>
        <time>2019-03-13T14:03:30Z</time>
      </trkpt>
      <trkpt lat="43.55377" lon="6.38411">
        <ele>394</ele>
        <time>2019-03-13T14:03:36Z</time>
      </trkpt>
      <trkpt lat="43.55384" lon="6.38407">
        <ele>394</ele>
        <time>2019-03-13T14:03:42Z</time>
      </trkpt>
      <trkpt lat="43.5539" lon="6.38401">
        <ele>396</ele>
        <time>2019-03-13T14:03:49Z</time>
      </trkpt>
      <trkpt lat="43.55417" lon="6.38393">
        <ele>398</ele>
        <time>2019-03-13T14:04:17Z</time>
      </trkpt>
      <trkpt lat="43.55431" lon="6.38395">
        <ele>398</ele>
        <time>2019-03-13T14:04:28Z</time>
      </trkpt>
      <trkpt lat="43.55437" lon="6.38395">
        <ele>399</ele>
        <time>2019-03-13T14:04:35Z</time>
      </trkpt>
      <trkpt lat="43.55444" lon="6.38395">
        <ele>401</ele>
        <time>2019-03-13T14:04:44Z</time>
      </trkpt>
      <trkpt lat="43.55466" lon="6.38396">
        <ele>404</ele>
        <time>2019-03-13T14:05:02Z</time>
      </trkpt>
      <trkpt lat="43.55481" lon="6.3839">
        <ele>405</ele>
        <time>2019-03-13T14:05:16Z</time>
      </trkpt>
      <trkpt lat="43.55488" lon="6.38385">
        <ele>404</ele>
        <time>2019-03-13T14:05:24Z</time>
      </trkpt>
      <trkpt lat="43.5553" lon="6.38375">
        <ele>407</ele>
        <time>2019-03-13T14:05:59Z</time>
      </trkpt>
      <trkpt lat="43.55554" lon="6.38369">
        <ele>407</ele>
        <time>2019-03-13T14:06:19Z</time>
      </trkpt>
      <trkpt lat="43.55562" lon="6.38367">
        <ele>407</ele>
        <time>2019-03-13T14:06:27Z</time>
      </trkpt>
      <trkpt lat="43.55583" lon="6.38365">
        <ele>408</ele>
        <time>2019-03-13T14:06:44Z</time>
      </trkpt>
      <trkpt lat="43.55584" lon="6.38368">
        <ele>408</ele>
        <time>2019-03-13T14:08:08Z</time>
      </trkpt>
      <trkpt lat="43.55568" lon="6.38372">
        <ele>410</ele>
        <time>2019-03-13T14:08:27Z</time>
      </trkpt>
      <trkpt lat="43.55575" lon="6.38367">
        <ele>412</ele>
        <time>2019-03-13T14:09:45Z</time>
      </trkpt>
      <trkpt lat="43.5558" lon="6.38367">
        <ele>411</ele>
        <time>2019-03-13T14:09:51Z</time>
      </trkpt>
      <trkpt lat="43.55584" lon="6.38365">
        <ele>410</ele>
        <time>2019-03-13T14:11:22Z</time>
      </trkpt>
      <trkpt lat="43.556" lon="6.38362">
        <ele>411</ele>
        <time>2019-03-13T14:11:36Z</time>
      </trkpt>
      <trkpt lat="43.55606" lon="6.38359">
        <ele>411</ele>
        <time>2019-03-13T14:11:45Z</time>
      </trkpt>
      <trkpt lat="43.55613" lon="6.38356">
        <ele>409</ele>
        <time>2019-03-13T14:11:52Z</time>
      </trkpt>
      <trkpt lat="43.55619" lon="6.38349">
        <ele>408</ele>
        <time>2019-03-13T14:11:58Z</time>
      </trkpt>
      <trkpt lat="43.5564" lon="6.38335">
        <ele>408</ele>
        <time>2019-03-13T14:12:16Z</time>
      </trkpt>
      <trkpt lat="43.55645" lon="6.3833">
        <ele>408</ele>
        <time>2019-03-13T14:12:22Z</time>
      </trkpt>
      <trkpt lat="43.55651" lon="6.38325">
        <ele>408</ele>
        <time>2019-03-13T14:12:27Z</time>
      </trkpt>
      <trkpt lat="43.55658" lon="6.38321">
        <ele>408</ele>
        <time>2019-03-13T14:12:34Z</time>
      </trkpt>
      <trkpt lat="43.55665" lon="6.38319">
        <ele>408</ele>
        <time>2019-03-13T14:12:40Z</time>
      </trkpt>
      <trkpt lat="43.557" lon="6.38306">
        <ele>409</ele>
        <time>2019-03-13T14:13:15Z</time>
      </trkpt>
      <trkpt lat="43.55713" lon="6.38304">
        <ele>407</ele>
        <time>2019-03-13T14:13:26Z</time>
      </trkpt>
      <trkpt lat="43.55739" lon="6.38294">
        <ele>404</ele>
        <time>2019-03-13T14:13:49Z</time>
      </trkpt>
      <trkpt lat="43.55745" lon="6.38289">
        <ele>405</ele>
        <time>2019-03-13T14:13:56Z</time>
      </trkpt>
      <trkpt lat="43.55761" lon="6.38277">
        <ele>405</ele>
        <time>2019-03-13T14:14:15Z</time>
      </trkpt>
      <trkpt lat="43.55767" lon="6.38274">
        <ele>405</ele>
        <time>2019-03-13T14:14:19Z</time>
      </trkpt>
      <trkpt lat="43.55772" lon="6.38271">
        <ele>405</ele>
        <time>2019-03-13T14:14:24Z</time>
      </trkpt>
      <trkpt lat="43.55778" lon="6.38267">
        <ele>406</ele>
        <time>2019-03-13T14:14:31Z</time>
      </trkpt>
      <trkpt lat="43.55785" lon="6.38267">
        <ele>407</ele>
        <time>2019-03-13T14:14:36Z</time>
      </trkpt>
      <trkpt lat="43.55793" lon="6.38267">
        <ele>409</ele>
        <time>2019-03-13T14:14:44Z</time>
      </trkpt>
      <trkpt lat="43.55801" lon="6.3827">
        <ele>410</ele>
        <time>2019-03-13T14:14:52Z</time>
      </trkpt>
      <trkpt lat="43.55803" lon="6.3828">
        <ele>410</ele>
        <time>2019-03-13T14:14:58Z</time>
      </trkpt>
      <trkpt lat="43.55801" lon="6.38288">
        <ele>409</ele>
        <time>2019-03-13T14:15:04Z</time>
      </trkpt>
      <trkpt lat="43.55801" lon="6.38296">
        <ele>409</ele>
        <time>2019-03-13T14:15:11Z</time>
      </trkpt>
      <trkpt lat="43.55799" lon="6.38305">
        <ele>410</ele>
        <time>2019-03-13T14:15:17Z</time>
      </trkpt>
      <trkpt lat="43.55797" lon="6.38322">
        <ele>411</ele>
        <time>2019-03-13T14:15:30Z</time>
      </trkpt>
      <trkpt lat="43.55793" lon="6.38342">
        <ele>410</ele>
        <time>2019-03-13T14:15:45Z</time>
      </trkpt>
      <trkpt lat="43.55787" lon="6.3836">
        <ele>411</ele>
        <time>2019-03-13T14:15:56Z</time>
      </trkpt>
      <trkpt lat="43.55785" lon="6.38369">
        <ele>410</ele>
        <time>2019-03-13T14:16:01Z</time>
      </trkpt>
      <trkpt lat="43.55781" lon="6.38377">
        <ele>409</ele>
        <time>2019-03-13T14:16:07Z</time>
      </trkpt>
      <trkpt lat="43.55768" lon="6.38427">
        <ele>408</ele>
        <time>2019-03-13T14:16:38Z</time>
      </trkpt>
      <trkpt lat="43.55758" lon="6.38454">
        <ele>408</ele>
        <time>2019-03-13T14:16:55Z</time>
      </trkpt>
      <trkpt lat="43.55754" lon="6.38462">
        <ele>408</ele>
        <time>2019-03-13T14:17:00Z</time>
      </trkpt>
      <trkpt lat="43.55753" lon="6.38469">
        <ele>408</ele>
        <time>2019-03-13T14:17:04Z</time>
      </trkpt>
      <trkpt lat="43.55751" lon="6.38478">
        <ele>408</ele>
        <time>2019-03-13T14:17:10Z</time>
      </trkpt>
      <trkpt lat="43.55749" lon="6.38484">
        <ele>407</ele>
        <time>2019-03-13T14:17:15Z</time>
      </trkpt>
      <trkpt lat="43.55748" lon="6.38491">
        <ele>406</ele>
        <time>2019-03-13T14:17:20Z</time>
      </trkpt>
      <trkpt lat="43.55747" lon="6.38497">
        <ele>406</ele>
        <time>2019-03-13T14:17:25Z</time>
      </trkpt>
      <trkpt lat="43.55746" lon="6.38504">
        <ele>407</ele>
        <time>2019-03-13T14:17:30Z</time>
      </trkpt>
      <trkpt lat="43.55744" lon="6.38512">
        <ele>406</ele>
        <time>2019-03-13T14:17:35Z</time>
      </trkpt>
      <trkpt lat="43.55741" lon="6.38527">
        <ele>406</ele>
        <time>2019-03-13T14:17:47Z</time>
      </trkpt>
      <trkpt lat="43.55739" lon="6.38533">
        <ele>405</ele>
        <time>2019-03-13T14:17:51Z</time>
      </trkpt>
      <trkpt lat="43.55734" lon="6.38554">
        <ele>402</ele>
        <time>2019-03-13T14:18:05Z</time>
      </trkpt>
      <trkpt lat="43.55735" lon="6.38562">
        <ele>401</ele>
        <time>2019-03-13T14:18:11Z</time>
      </trkpt>
      <trkpt lat="43.55739" lon="6.38579">
        <ele>401</ele>
        <time>2019-03-13T14:18:24Z</time>
      </trkpt>
      <trkpt lat="43.55746" lon="6.38607">
        <ele>399</ele>
        <time>2019-03-13T14:18:42Z</time>
      </trkpt>
      <trkpt lat="43.55748" lon="6.38615">
        <ele>398</ele>
        <time>2019-03-13T14:18:48Z</time>
      </trkpt>
      <trkpt lat="43.55749" lon="6.38632">
        <ele>397</ele>
        <time>2019-03-13T14:18:59Z</time>
      </trkpt>
      <trkpt lat="43.55747" lon="6.3865">
        <ele>394</ele>
        <time>2019-03-13T14:19:09Z</time>
      </trkpt>
      <trkpt lat="43.55744" lon="6.38666">
        <ele>395</ele>
        <time>2019-03-13T14:19:20Z</time>
      </trkpt>
      <trkpt lat="43.55743" lon="6.38673">
        <ele>396</ele>
        <time>2019-03-13T14:19:25Z</time>
      </trkpt>
      <trkpt lat="43.55749" lon="6.38698">
        <ele>395</ele>
        <time>2019-03-13T14:19:43Z</time>
      </trkpt>
      <trkpt lat="43.55749" lon="6.38705">
        <ele>393</ele>
        <time>2019-03-13T14:19:48Z</time>
      </trkpt>
      <trkpt lat="43.55748" lon="6.3872">
        <ele>393</ele>
        <time>2019-03-13T14:19:58Z</time>
      </trkpt>
      <trkpt lat="43.55746" lon="6.38734">
        <ele>393</ele>
        <time>2019-03-13T14:20:08Z</time>
      </trkpt>
      <trkpt lat="43.55743" lon="6.38743">
        <ele>393</ele>
        <time>2019-03-13T14:20:13Z</time>
      </trkpt>
      <trkpt lat="43.55741" lon="6.3875">
        <ele>393</ele>
        <time>2019-03-13T14:20:18Z</time>
      </trkpt>
      <trkpt lat="43.5574" lon="6.38776">
        <ele>393</ele>
        <time>2019-03-13T14:20:34Z</time>
      </trkpt>
      <trkpt lat="43.5574" lon="6.38783">
        <ele>393</ele>
        <time>2019-03-13T14:20:40Z</time>
      </trkpt>
      <trkpt lat="43.55739" lon="6.3879">
        <ele>394</ele>
        <time>2019-03-13T14:21:52Z</time>
      </trkpt>
      <trkpt lat="43.5574" lon="6.38799">
        <ele>395</ele>
        <time>2019-03-13T14:21:57Z</time>
      </trkpt>
      <trkpt lat="43.55741" lon="6.38815">
        <ele>393</ele>
        <time>2019-03-13T14:22:09Z</time>
      </trkpt>
      <trkpt lat="43.5574" lon="6.38825">
        <ele>394</ele>
        <time>2019-03-13T14:22:16Z</time>
      </trkpt>
      <trkpt lat="43.5574" lon="6.38858">
        <ele>397</ele>
        <time>2019-03-13T14:22:40Z</time>
      </trkpt>
      <trkpt lat="43.55742" lon="6.38868">
        <ele>398</ele>
        <time>2019-03-13T14:22:47Z</time>
      </trkpt>
      <trkpt lat="43.55744" lon="6.38876">
        <ele>397</ele>
        <time>2019-03-13T14:22:53Z</time>
      </trkpt>
      <trkpt lat="43.55741" lon="6.38896">
        <ele>398</ele>
        <time>2019-03-13T14:23:05Z</time>
      </trkpt>
      <trkpt lat="43.55738" lon="6.38905">
        <ele>400</ele>
        <time>2019-03-13T14:23:12Z</time>
      </trkpt>
      <trkpt lat="43.55733" lon="6.38911">
        <ele>401</ele>
        <time>2019-03-13T14:23:18Z</time>
      </trkpt>
      <trkpt lat="43.55714" lon="6.38929">
        <ele>402</ele>
        <time>2019-03-13T14:23:37Z</time>
      </trkpt>
      <trkpt lat="43.55685" lon="6.38962">
        <ele>401</ele>
        <time>2019-03-13T14:24:11Z</time>
      </trkpt>
      <trkpt lat="43.55671" lon="6.38982">
        <ele>399</ele>
        <time>2019-03-13T14:24:26Z</time>
      </trkpt>
      <trkpt lat="43.55648" lon="6.39007">
        <ele>399</ele>
        <time>2019-03-13T14:24:49Z</time>
      </trkpt>
      <trkpt lat="43.55641" lon="6.3901">
        <ele>399</ele>
        <time>2019-03-13T14:24:54Z</time>
      </trkpt>
      <trkpt lat="43.5563" lon="6.39015">
        <ele>398</ele>
        <time>2019-03-13T14:25:04Z</time>
      </trkpt>
      <trkpt lat="43.55624" lon="6.39016">
        <ele>398</ele>
        <time>2019-03-13T14:25:09Z</time>
      </trkpt>
      <trkpt lat="43.55618" lon="6.39017">
        <ele>398</ele>
        <time>2019-03-13T14:25:13Z</time>
      </trkpt>
      <trkpt lat="43.55597" lon="6.39039">
        <ele>396</ele>
        <time>2019-03-13T14:25:36Z</time>
      </trkpt>
      <trkpt lat="43.55587" lon="6.39049">
        <ele>395</ele>
        <time>2019-03-13T14:25:45Z</time>
      </trkpt>
      <trkpt lat="43.55578" lon="6.39063">
        <ele>393</ele>
        <time>2019-03-13T14:25:56Z</time>
      </trkpt>
      <trkpt lat="43.55553" lon="6.39096">
        <ele>394</ele>
        <time>2019-03-13T14:26:24Z</time>
      </trkpt>
      <trkpt lat="43.55547" lon="6.39113">
        <ele>393</ele>
        <time>2019-03-13T14:26:36Z</time>
      </trkpt>
      <trkpt lat="43.55544" lon="6.39141">
        <ele>390</ele>
        <time>2019-03-13T14:26:56Z</time>
      </trkpt>
      <trkpt lat="43.55545" lon="6.39151">
        <ele>388</ele>
        <time>2019-03-13T14:27:02Z</time>
      </trkpt>
      <trkpt lat="43.55547" lon="6.3916">
        <ele>385</ele>
        <time>2019-03-13T14:27:07Z</time>
      </trkpt>
      <trkpt lat="43.55549" lon="6.39168">
        <ele>383</ele>
        <time>2019-03-13T14:27:12Z</time>
      </trkpt>
      <trkpt lat="43.55552" lon="6.39175">
        <ele>383</ele>
        <time>2019-03-13T14:27:16Z</time>
      </trkpt>
      <trkpt lat="43.55581" lon="6.39207">
        <ele>381</ele>
        <time>2019-03-13T14:27:49Z</time>
      </trkpt>
      <trkpt lat="43.55587" lon="6.39213">
        <ele>380</ele>
        <time>2019-03-13T14:27:54Z</time>
      </trkpt>
      <trkpt lat="43.55618" lon="6.39236">
        <ele>376</ele>
        <time>2019-03-13T14:28:25Z</time>
      </trkpt>
      <trkpt lat="43.55644" lon="6.39269">
        <ele>375</ele>
        <time>2019-03-13T14:28:55Z</time>
      </trkpt>
      <trkpt lat="43.55651" lon="6.39285">
        <ele>374</ele>
        <time>2019-03-13T14:29:06Z</time>
      </trkpt>
      <trkpt lat="43.55653" lon="6.39302">
        <ele>372</ele>
        <time>2019-03-13T14:29:17Z</time>
      </trkpt>
      <trkpt lat="43.55649" lon="6.39359">
        <ele>373</ele>
        <time>2019-03-13T14:29:50Z</time>
      </trkpt>
      <trkpt lat="43.55642" lon="6.39406">
        <ele>372</ele>
        <time>2019-03-13T14:30:20Z</time>
      </trkpt>
      <trkpt lat="43.55635" lon="6.39438">
        <ele>373</ele>
        <time>2019-03-13T14:30:39Z</time>
      </trkpt>
      <trkpt lat="43.55633" lon="6.39445">
        <ele>373</ele>
        <time>2019-03-13T14:30:43Z</time>
      </trkpt>
      <trkpt lat="43.55633" lon="6.39461">
        <ele>372</ele>
        <time>2019-03-13T14:30:53Z</time>
      </trkpt>
      <trkpt lat="43.55631" lon="6.39478">
        <ele>372</ele>
        <time>2019-03-13T14:31:04Z</time>
      </trkpt>
      <trkpt lat="43.5563" lon="6.39505">
        <ele>373</ele>
        <time>2019-03-13T14:31:47Z</time>
      </trkpt>
      <trkpt lat="43.55632" lon="6.39511">
        <ele>375</ele>
        <time>2019-03-13T14:33:26Z</time>
      </trkpt>
      <trkpt lat="43.55633" lon="6.39517">
        <ele>374</ele>
        <time>2019-03-13T14:33:33Z</time>
      </trkpt>
      <trkpt lat="43.55632" lon="6.39523">
        <ele>372</ele>
        <time>2019-03-13T14:33:38Z</time>
      </trkpt>
      <trkpt lat="43.55615" lon="6.3955">
        <ele>369</ele>
        <time>2019-03-13T14:34:08Z</time>
      </trkpt>
      <trkpt lat="43.55601" lon="6.3957">
        <ele>368</ele>
        <time>2019-03-13T14:34:24Z</time>
      </trkpt>
      <trkpt lat="43.55598" lon="6.39575">
        <ele>368</ele>
        <time>2019-03-13T14:34:28Z</time>
      </trkpt>
      <trkpt lat="43.55593" lon="6.39579">
        <ele>369</ele>
        <time>2019-03-13T14:34:32Z</time>
      </trkpt>
      <trkpt lat="43.55588" lon="6.39579">
        <ele>369</ele>
        <time>2019-03-13T14:34:36Z</time>
      </trkpt>
      <trkpt lat="43.55583" lon="6.39578">
        <ele>371</ele>
        <time>2019-03-13T14:34:40Z</time>
      </trkpt>
      <trkpt lat="43.55579" lon="6.39574">
        <ele>371</ele>
        <time>2019-03-13T14:34:45Z</time>
      </trkpt>
      <trkpt lat="43.55572" lon="6.39564">
        <ele>370</ele>
        <time>2019-03-13T14:34:53Z</time>
      </trkpt>
      <trkpt lat="43.55566" lon="6.39561">
        <ele>370</ele>
        <time>2019-03-13T14:34:58Z</time>
      </trkpt>
      <trkpt lat="43.55561" lon="6.39547">
        <ele>371</ele>
        <time>2019-03-13T14:35:10Z</time>
      </trkpt>
      <trkpt lat="43.55559" lon="6.39541">
        <ele>370</ele>
        <time>2019-03-13T14:35:15Z</time>
      </trkpt>
      <trkpt lat="43.55555" lon="6.39536">
        <ele>370</ele>
        <time>2019-03-13T14:35:20Z</time>
      </trkpt>
      <trkpt lat="43.55551" lon="6.39533">
        <ele>370</ele>
        <time>2019-03-13T14:35:24Z</time>
      </trkpt>
      <trkpt lat="43.55546" lon="6.39532">
        <ele>369</ele>
        <time>2019-03-13T14:35:29Z</time>
      </trkpt>
      <trkpt lat="43.55537" lon="6.39528">
        <ele>367</ele>
        <time>2019-03-13T14:35:37Z</time>
      </trkpt>
      <trkpt lat="43.55532" lon="6.39525">
        <ele>367</ele>
        <time>2019-03-13T14:35:41Z</time>
      </trkpt>
      <trkpt lat="43.55518" lon="6.395">
        <ele>364</ele>
        <time>2019-03-13T14:36:01Z</time>
      </trkpt>
      <trkpt lat="43.55514" lon="6.39493">
        <ele>363</ele>
        <time>2019-03-13T14:36:07Z</time>
      </trkpt>
      <trkpt lat="43.55508" lon="6.39493">
        <ele>362</ele>
        <time>2019-03-13T14:36:12Z</time>
      </trkpt>
      <trkpt lat="43.55501" lon="6.39494">
        <ele>360</ele>
        <time>2019-03-13T14:36:17Z</time>
      </trkpt>
      <trkpt lat="43.55477" lon="6.39501">
        <ele>361</ele>
        <time>2019-03-13T14:36:35Z</time>
      </trkpt>
      <trkpt lat="43.55444" lon="6.39511">
        <ele>359</ele>
        <time>2019-03-13T14:37:01Z</time>
      </trkpt>
      <trkpt lat="43.55438" lon="6.39513">
        <ele>359</ele>
        <time>2019-03-13T14:37:06Z</time>
      </trkpt>
      <trkpt lat="43.55433" lon="6.39518">
        <ele>359</ele>
        <time>2019-03-13T14:37:12Z</time>
      </trkpt>
      <trkpt lat="43.5543" lon="6.39524">
        <ele>359</ele>
        <time>2019-03-13T14:37:17Z</time>
      </trkpt>
      <trkpt lat="43.55424" lon="6.39525">
        <ele>359</ele>
        <time>2019-03-13T14:37:24Z</time>
      </trkpt>
      <trkpt lat="43.55419" lon="6.39522">
        <ele>357</ele>
        <time>2019-03-13T14:37:29Z</time>
      </trkpt>
      <trkpt lat="43.55414" lon="6.39519">
        <ele>356</ele>
        <time>2019-03-13T14:37:35Z</time>
      </trkpt>
      <trkpt lat="43.55409" lon="6.39515">
        <ele>354</ele>
        <time>2019-03-13T14:37:41Z</time>
      </trkpt>
      <trkpt lat="43.55406" lon="6.39508">
        <ele>351</ele>
        <time>2019-03-13T14:37:48Z</time>
      </trkpt>
      <trkpt lat="43.55396" lon="6.39497">
        <ele>347</ele>
        <time>2019-03-13T14:38:00Z</time>
      </trkpt>
      <trkpt lat="43.55393" lon="6.39491">
        <ele>348</ele>
        <time>2019-03-13T14:38:06Z</time>
      </trkpt>
      <trkpt lat="43.55386" lon="6.39475">
        <ele>351</ele>
        <time>2019-03-13T14:38:21Z</time>
      </trkpt>
      <trkpt lat="43.55389" lon="6.39467">
        <ele>350</ele>
        <time>2019-03-13T14:38:26Z</time>
      </trkpt>
      <trkpt lat="43.55392" lon="6.39458">
        <ele>344</ele>
        <time>2019-03-13T14:38:32Z</time>
      </trkpt>
      <trkpt lat="43.55395" lon="6.3945">
        <ele>343</ele>
        <time>2019-03-13T14:38:40Z</time>
      </trkpt>
      <trkpt lat="43.55395" lon="6.39441">
        <ele>344</ele>
        <time>2019-03-13T14:38:49Z</time>
      </trkpt>
      <trkpt lat="43.55399" lon="6.39432">
        <ele>346</ele>
        <time>2019-03-13T14:39:04Z</time>
      </trkpt>
      <trkpt lat="43.55401" lon="6.39424">
        <ele>345</ele>
        <time>2019-03-13T14:39:13Z</time>
      </trkpt>
      <trkpt lat="43.55402" lon="6.39416">
        <ele>344</ele>
        <time>2019-03-13T14:39:20Z</time>
      </trkpt>
      <trkpt lat="43.55407" lon="6.39411">
        <ele>344</ele>
        <time>2019-03-13T14:39:35Z</time>
      </trkpt>
      <trkpt lat="43.55409" lon="6.39404">
        <ele>343</ele>
        <time>2019-03-13T14:39:49Z</time>
      </trkpt>
      <trkpt lat="43.55416" lon="6.39391">
        <ele>343</ele>
        <time>2019-03-13T14:40:11Z</time>
      </trkpt>
      <trkpt lat="43.5542" lon="6.39384">
        <ele>342</ele>
        <time>2019-03-13T14:40:17Z</time>
      </trkpt>
      <trkpt lat="43.55424" lon="6.39377">
        <ele>341</ele>
        <time>2019-03-13T14:40:23Z</time>
      </trkpt>
      <trkpt lat="43.55426" lon="6.39371">
        <ele>338</ele>
        <time>2019-03-13T14:40:36Z</time>
      </trkpt>
      <trkpt lat="43.5543" lon="6.3937">
        <ele>336</ele>
        <time>2019-03-13T14:40:56Z</time>
      </trkpt>
      <trkpt lat="43.55434" lon="6.39361">
        <ele>338</ele>
        <time>2019-03-13T14:41:05Z</time>
      </trkpt>
      <trkpt lat="43.55436" lon="6.39358">
        <ele>339</ele>
        <time>2019-03-13T14:41:08Z</time>
      </trkpt>
      <trkpt lat="43.55439" lon="6.39352">
        <ele>342</ele>
        <time>2019-03-13T14:41:59Z</time>
      </trkpt>
      <trkpt lat="43.55443" lon="6.39346">
        <ele>345</ele>
        <time>2019-03-13T14:42:07Z</time>
      </trkpt>
      <trkpt lat="43.55446" lon="6.39339">
        <ele>345</ele>
        <time>2019-03-13T14:42:19Z</time>
      </trkpt>
      <trkpt lat="43.55444" lon="6.3933">
        <ele>346</ele>
        <time>2019-03-13T14:42:41Z</time>
      </trkpt>
      <trkpt lat="43.55454" lon="6.39326">
        <ele>348</ele>
        <time>2019-03-13T14:43:00Z</time>
      </trkpt>
      <trkpt lat="43.55458" lon="6.3932">
        <ele>349</ele>
        <time>2019-03-13T14:44:05Z</time>
      </trkpt>
      <trkpt lat="43.55457" lon="6.39313">
        <ele>349</ele>
        <time>2019-03-13T14:44:12Z</time>
      </trkpt>
      <trkpt lat="43.55452" lon="6.3931">
        <ele>348</ele>
        <time>2019-03-13T14:44:20Z</time>
      </trkpt>
      <trkpt lat="43.55449" lon="6.39316">
        <ele>346</ele>
        <time>2019-03-13T14:44:29Z</time>
      </trkpt>
      <trkpt lat="43.55445" lon="6.39317">
        <ele>345</ele>
        <time>2019-03-13T14:44:58Z</time>
      </trkpt>
      <trkpt lat="43.55434" lon="6.3932">
        <ele>344</ele>
        <time>2019-03-13T14:45:08Z</time>
      </trkpt>
      <trkpt lat="43.55428" lon="6.39323">
        <ele>343</ele>
        <time>2019-03-13T14:45:14Z</time>
      </trkpt>
      <trkpt lat="43.55423" lon="6.39324">
        <ele>340</ele>
        <time>2019-03-13T14:45:21Z</time>
      </trkpt>
      <trkpt lat="43.55404" lon="6.39332">
        <ele>342</ele>
        <time>2019-03-13T14:45:42Z</time>
      </trkpt>
      <trkpt lat="43.554" lon="6.39338">
        <ele>341</ele>
        <time>2019-03-13T14:45:53Z</time>
      </trkpt>
      <trkpt lat="43.55386" lon="6.39349">
        <ele>340</ele>
        <time>2019-03-13T14:46:07Z</time>
      </trkpt>
      <trkpt lat="43.55381" lon="6.39354">
        <ele>340</ele>
        <time>2019-03-13T14:46:13Z</time>
      </trkpt>
      <trkpt lat="43.55377" lon="6.3936">
        <ele>340</ele>
        <time>2019-03-13T14:46:21Z</time>
      </trkpt>
      <trkpt lat="43.55375" lon="6.39368">
        <ele>339</ele>
        <time>2019-03-13T14:46:29Z</time>
      </trkpt>
      <trkpt lat="43.5538" lon="6.39372">
        <ele>338</ele>
        <time>2019-03-13T14:46:35Z</time>
      </trkpt>
      <trkpt lat="43.55386" lon="6.39386">
        <ele>338</ele>
        <time>2019-03-13T14:46:46Z</time>
      </trkpt>
      <trkpt lat="43.55388" lon="6.39395">
        <ele>338</ele>
        <time>2019-03-13T14:46:55Z</time>
      </trkpt>
      <trkpt lat="43.55392" lon="6.394">
        <ele>337</ele>
        <time>2019-03-13T14:47:04Z</time>
      </trkpt>
      <trkpt lat="43.55397" lon="6.39407">
        <ele>340</ele>
        <time>2019-03-13T14:47:30Z</time>
      </trkpt>
      <trkpt lat="43.55402" lon="6.39409">
        <ele>340</ele>
        <time>2019-03-13T14:47:58Z</time>
      </trkpt>
      <trkpt lat="43.55403" lon="6.39416">
        <ele>341</ele>
        <time>2019-03-13T14:48:26Z</time>
      </trkpt>
      <trkpt lat="43.55399" lon="6.39434">
        <ele>341</ele>
        <time>2019-03-13T14:48:42Z</time>
      </trkpt>
      <trkpt lat="43.55397" lon="6.39441">
        <ele>342</ele>
        <time>2019-03-13T14:48:51Z</time>
      </trkpt>
      <trkpt lat="43.55385" lon="6.39461">
        <ele>339</ele>
        <time>2019-03-13T14:49:17Z</time>
      </trkpt>
      <trkpt lat="43.55388" lon="6.39454">
        <ele>337</ele>
        <time>2019-03-13T14:51:08Z</time>
      </trkpt>
      <trkpt lat="43.55383" lon="6.3945">
        <ele>339</ele>
        <time>2019-03-13T14:52:01Z</time>
      </trkpt>
      <trkpt lat="43.55379" lon="6.39455">
        <ele>339</ele>
        <time>2019-03-13T14:52:07Z</time>
      </trkpt>
      <trkpt lat="43.55373" lon="6.39459">
        <ele>337</ele>
        <time>2019-03-13T14:52:18Z</time>
      </trkpt>
      <trkpt lat="43.55367" lon="6.39462">
        <ele>335</ele>
        <time>2019-03-13T14:52:24Z</time>
      </trkpt>
      <trkpt lat="43.55362" lon="6.39465">
        <ele>334</ele>
        <time>2019-03-13T14:52:31Z</time>
      </trkpt>
      <trkpt lat="43.55348" lon="6.39474">
        <ele>331</ele>
        <time>2019-03-13T14:52:48Z</time>
      </trkpt>
      <trkpt lat="43.55322" lon="6.39485">
        <ele>327</ele>
        <time>2019-03-13T14:53:15Z</time>
      </trkpt>
      <trkpt lat="43.55314" lon="6.39487">
        <ele>327</ele>
        <time>2019-03-13T14:53:22Z</time>
      </trkpt>
      <trkpt lat="43.55309" lon="6.39489">
        <ele>327</ele>
        <time>2019-03-13T14:53:29Z</time>
      </trkpt>
      <trkpt lat="43.55302" lon="6.39494">
        <ele>327</ele>
        <time>2019-03-13T14:53:36Z</time>
      </trkpt>
      <trkpt lat="43.5529" lon="6.39505">
        <ele>326</ele>
        <time>2019-03-13T14:53:51Z</time>
      </trkpt>
      <trkpt lat="43.55273" lon="6.3951">
        <ele>327</ele>
        <time>2019-03-13T14:54:08Z</time>
      </trkpt>
      <trkpt lat="43.55267" lon="6.39515">
        <ele>328</ele>
        <time>2019-03-13T14:54:16Z</time>
      </trkpt>
      <trkpt lat="43.5526" lon="6.39518">
        <ele>328</ele>
        <time>2019-03-13T14:54:24Z</time>
      </trkpt>
      <trkpt lat="43.55232" lon="6.39534">
        <ele>329</ele>
        <time>2019-03-13T14:54:51Z</time>
      </trkpt>
      <trkpt lat="43.55202" lon="6.39551">
        <ele>331</ele>
        <time>2019-03-13T14:55:22Z</time>
      </trkpt>
      <trkpt lat="43.55195" lon="6.39556">
        <ele>331</ele>
        <time>2019-03-13T14:55:28Z</time>
      </trkpt>
      <trkpt lat="43.5519" lon="6.39558">
        <ele>330</ele>
        <time>2019-03-13T14:55:37Z</time>
      </trkpt>
      <trkpt lat="43.55179" lon="6.39565">
        <ele>332</ele>
        <time>2019-03-13T14:56:09Z</time>
      </trkpt>
      <trkpt lat="43.55175" lon="6.39567">
        <ele>333</ele>
        <time>2019-03-13T14:56:38Z</time>
      </trkpt>
      <trkpt lat="43.55169" lon="6.39567">
        <ele>333</ele>
        <time>2019-03-13T14:56:54Z</time>
      </trkpt>
      <trkpt lat="43.55165" lon="6.39559">
        <ele>334</ele>
        <time>2019-03-13T14:57:03Z</time>
      </trkpt>
      <trkpt lat="43.55165" lon="6.3955">
        <ele>334</ele>
        <time>2019-03-13T14:57:13Z</time>
      </trkpt>
      <trkpt lat="43.55159" lon="6.39548">
        <ele>333</ele>
        <time>2019-03-13T14:57:36Z</time>
      </trkpt>
      <trkpt lat="43.55154" lon="6.39553">
        <ele>333</ele>
        <time>2019-03-13T14:57:49Z</time>
      </trkpt>
      <trkpt lat="43.55152" lon="6.39544">
        <ele>332</ele>
        <time>2019-03-13T14:58:14Z</time>
      </trkpt>
      <trkpt lat="43.55153" lon="6.39535">
        <ele>331</ele>
        <time>2019-03-13T14:58:24Z</time>
      </trkpt>
      <trkpt lat="43.5515" lon="6.39526">
        <ele>332</ele>
        <time>2019-03-13T14:58:39Z</time>
      </trkpt>
      <trkpt lat="43.55148" lon="6.39518">
        <ele>335</ele>
        <time>2019-03-13T14:58:53Z</time>
      </trkpt>
      <trkpt lat="43.55143" lon="6.39514">
        <ele>333</ele>
        <time>2019-03-13T14:59:10Z</time>
      </trkpt>
      <trkpt lat="43.5514" lon="6.3952">
        <ele>329</ele>
        <time>2019-03-13T14:59:51Z</time>
      </trkpt>
      <trkpt lat="43.55136" lon="6.39524">
        <ele>325</ele>
        <time>2019-03-13T15:00:12Z</time>
      </trkpt>
      <trkpt lat="43.5513" lon="6.39519">
        <ele>325</ele>
        <time>2019-03-13T15:00:26Z</time>
      </trkpt>
      <trkpt lat="43.55127" lon="6.39511">
        <ele>323</ele>
        <time>2019-03-13T15:00:39Z</time>
      </trkpt>
      <trkpt lat="43.55121" lon="6.39506">
        <ele>323</ele>
        <time>2019-03-13T15:00:53Z</time>
      </trkpt>
      <trkpt lat="43.55118" lon="6.395">
        <ele>322</ele>
        <time>2019-03-13T15:01:07Z</time>
      </trkpt>
      <trkpt lat="43.55113" lon="6.39496">
        <ele>321</ele>
        <time>2019-03-13T15:01:20Z</time>
      </trkpt>
      <trkpt lat="43.55109" lon="6.39492">
        <ele>320</ele>
        <time>2019-03-13T15:01:30Z</time>
      </trkpt>
      <trkpt lat="43.55109" lon="6.39482">
        <ele>319</ele>
        <time>2019-03-13T15:01:40Z</time>
      </trkpt>
      <trkpt lat="43.55109" lon="6.39473">
        <ele>318</ele>
        <time>2019-03-13T15:01:47Z</time>
      </trkpt>
      <trkpt lat="43.55115" lon="6.39443">
        <ele>315</ele>
        <time>2019-03-13T15:02:09Z</time>
      </trkpt>
      <trkpt lat="43.55119" lon="6.39427">
        <ele>315</ele>
        <time>2019-03-13T15:02:21Z</time>
      </trkpt>
      <trkpt lat="43.5512" lon="6.39418">
        <ele>316</ele>
        <time>2019-03-13T15:02:27Z</time>
      </trkpt>
      <trkpt lat="43.55121" lon="6.39409">
        <ele>316</ele>
        <time>2019-03-13T15:02:33Z</time>
      </trkpt>
      <trkpt lat="43.55124" lon="6.394">
        <ele>315</ele>
        <time>2019-03-13T15:02:39Z</time>
      </trkpt>
      <trkpt lat="43.55125" lon="6.3939">
        <ele>315</ele>
        <time>2019-03-13T15:02:45Z</time>
      </trkpt>
      <trkpt lat="43.55132" lon="6.39377">
        <ele>314</ele>
        <time>2019-03-13T15:02:55Z</time>
      </trkpt>
      <trkpt lat="43.55132" lon="6.39366">
        <ele>314</ele>
        <time>2019-03-13T15:03:03Z</time>
      </trkpt>
      <trkpt lat="43.55125" lon="6.39369">
        <ele>313</ele>
        <time>2019-03-13T15:03:09Z</time>
      </trkpt>
      <trkpt lat="43.55119" lon="6.39376">
        <ele>311</ele>
        <time>2019-03-13T15:03:16Z</time>
      </trkpt>
      <trkpt lat="43.55103" lon="6.39395">
        <ele>308</ele>
        <time>2019-03-13T15:03:33Z</time>
      </trkpt>
      <trkpt lat="43.55099" lon="6.39401">
        <ele>308</ele>
        <time>2019-03-13T15:03:38Z</time>
      </trkpt>
      <trkpt lat="43.55094" lon="6.39407">
        <ele>308</ele>
        <time>2019-03-13T15:03:45Z</time>
      </trkpt>
      <trkpt lat="43.55089" lon="6.39414">
        <ele>308</ele>
        <time>2019-03-13T15:03:51Z</time>
      </trkpt>
      <trkpt lat="43.55083" lon="6.39419">
        <ele>309</ele>
        <time>2019-03-13T15:03:58Z</time>
      </trkpt>
      <trkpt lat="43.55077" lon="6.39418">
        <ele>309</ele>
        <time>2019-03-13T15:04:03Z</time>
      </trkpt>
      <trkpt lat="43.5507" lon="6.39419">
        <ele>309</ele>
        <time>2019-03-13T15:04:10Z</time>
      </trkpt>
      <trkpt lat="43.55036" lon="6.39426">
        <ele>308</ele>
        <time>2019-03-13T15:04:43Z</time>
      </trkpt>
      <trkpt lat="43.55008" lon="6.39403">
        <ele>309</ele>
        <time>2019-03-13T15:05:14Z</time>
      </trkpt>
      <trkpt lat="43.54989" lon="6.39386">
        <ele>307</ele>
        <time>2019-03-13T15:05:33Z</time>
      </trkpt>
      <trkpt lat="43.54982" lon="6.39383">
        <ele>307</ele>
        <time>2019-03-13T15:05:39Z</time>
      </trkpt>
      <trkpt lat="43.54977" lon="6.39378">
        <ele>307</ele>
        <time>2019-03-13T15:05:44Z</time>
      </trkpt>
      <trkpt lat="43.54972" lon="6.39372">
        <ele>307</ele>
        <time>2019-03-13T15:05:49Z</time>
      </trkpt>
      <trkpt lat="43.54953" lon="6.39348">
        <ele>308</ele>
        <time>2019-03-13T15:06:10Z</time>
      </trkpt>
      <trkpt lat="43.54921" lon="6.39321">
        <ele>307</ele>
        <time>2019-03-13T15:06:44Z</time>
      </trkpt>
      <trkpt lat="43.54915" lon="6.39318">
        <ele>307</ele>
        <time>2019-03-13T15:06:49Z</time>
      </trkpt>
      <trkpt lat="43.54891" lon="6.39312">
        <ele>311</ele>
        <time>2019-03-13T15:07:12Z</time>
      </trkpt>
      <trkpt lat="43.54878" lon="6.39311">
        <ele>312</ele>
        <time>2019-03-13T15:07:24Z</time>
      </trkpt>
      <trkpt lat="43.5487" lon="6.39309">
        <ele>313</ele>
        <time>2019-03-13T15:07:31Z</time>
      </trkpt>
      <trkpt lat="43.54863" lon="6.39307">
        <ele>316</ele>
        <time>2019-03-13T15:07:37Z</time>
      </trkpt>
      <trkpt lat="43.54858" lon="6.39308">
        <ele>314</ele>
        <time>2019-03-13T15:07:44Z</time>
      </trkpt>
      <trkpt lat="43.54852" lon="6.39308">
        <ele>314</ele>
        <time>2019-03-13T15:07:50Z</time>
      </trkpt>
      <trkpt lat="43.54845" lon="6.39308">
        <ele>316</ele>
        <time>2019-03-13T15:07:56Z</time>
      </trkpt>
      <trkpt lat="43.5484" lon="6.39311">
        <ele>318</ele>
        <time>2019-03-13T15:08:04Z</time>
      </trkpt>
      <trkpt lat="43.54833" lon="6.39316">
        <ele>319</ele>
        <time>2019-03-13T15:08:10Z</time>
      </trkpt>
      <trkpt lat="43.54829" lon="6.39322">
        <ele>320</ele>
        <time>2019-03-13T15:08:15Z</time>
      </trkpt>
      <trkpt lat="43.54824" lon="6.39326">
        <ele>320</ele>
        <time>2019-03-13T15:08:21Z</time>
      </trkpt>
      <trkpt lat="43.54819" lon="6.39332">
        <ele>321</ele>
        <time>2019-03-13T15:08:29Z</time>
      </trkpt>
      <trkpt lat="43.54814" lon="6.39336">
        <ele>323</ele>
        <time>2019-03-13T15:08:35Z</time>
      </trkpt>
      <trkpt lat="43.54808" lon="6.39343">
        <ele>324</ele>
        <time>2019-03-13T15:08:44Z</time>
      </trkpt>
      <trkpt lat="43.54801" lon="6.39351">
        <ele>325</ele>
        <time>2019-03-13T15:08:52Z</time>
      </trkpt>
      <trkpt lat="43.54795" lon="6.39353">
        <ele>325</ele>
        <time>2019-03-13T15:08:59Z</time>
      </trkpt>
      <trkpt lat="43.54784" lon="6.39357">
        <ele>327</ele>
        <time>2019-03-13T15:09:11Z</time>
      </trkpt>
      <trkpt lat="43.54757" lon="6.39365">
        <ele>329</ele>
        <time>2019-03-13T15:09:36Z</time>
      </trkpt>
      <trkpt lat="43.5474" lon="6.39371">
        <ele>329</ele>
        <time>2019-03-13T15:09:51Z</time>
      </trkpt>
      <trkpt lat="43.54735" lon="6.39374">
        <ele>329</ele>
        <time>2019-03-13T15:09:57Z</time>
      </trkpt>
      <trkpt lat="43.54704" lon="6.39382">
        <ele>331</ele>
        <time>2019-03-13T15:10:29Z</time>
      </trkpt>
      <trkpt lat="43.54696" lon="6.39384">
        <ele>330</ele>
        <time>2019-03-13T15:10:36Z</time>
      </trkpt>
      <trkpt lat="43.54688" lon="6.39385">
        <ele>329</ele>
        <time>2019-03-13T15:10:45Z</time>
      </trkpt>
      <trkpt lat="43.54669" lon="6.39382">
        <ele>329</ele>
        <time>2019-03-13T15:10:58Z</time>
      </trkpt>
      <trkpt lat="43.54651" lon="6.39391">
        <ele>330</ele>
        <time>2019-03-13T15:11:14Z</time>
      </trkpt>
      <trkpt lat="43.54644" lon="6.39403">
        <ele>329</ele>
        <time>2019-03-13T15:11:24Z</time>
      </trkpt>
      <trkpt lat="43.54641" lon="6.39412">
        <ele>328</ele>
        <time>2019-03-13T15:11:31Z</time>
      </trkpt>
      <trkpt lat="43.54627" lon="6.39438">
        <ele>329</ele>
        <time>2019-03-13T15:11:50Z</time>
      </trkpt>
      <trkpt lat="43.54617" lon="6.39445">
        <ele>328</ele>
        <time>2019-03-13T15:12:00Z</time>
      </trkpt>
      <trkpt lat="43.54612" lon="6.39448">
        <ele>328</ele>
        <time>2019-03-13T15:12:05Z</time>
      </trkpt>
      <trkpt lat="43.54582" lon="6.39462">
        <ele>327</ele>
        <time>2019-03-13T15:12:33Z</time>
      </trkpt>
      <trkpt lat="43.5456" lon="6.39479">
        <ele>327</ele>
        <time>2019-03-13T15:12:54Z</time>
      </trkpt>
      <trkpt lat="43.54549" lon="6.39491">
        <ele>326</ele>
        <time>2019-03-13T15:13:05Z</time>
      </trkpt>
      <trkpt lat="43.54544" lon="6.39494">
        <ele>325</ele>
        <time>2019-03-13T15:13:11Z</time>
      </trkpt>
      <trkpt lat="43.5454" lon="6.395">
        <ele>324</ele>
        <time>2019-03-13T15:13:16Z</time>
      </trkpt>
      <trkpt lat="43.54523" lon="6.39513">
        <ele>325</ele>
        <time>2019-03-13T15:13:33Z</time>
      </trkpt>
      <trkpt lat="43.545" lon="6.39551">
        <ele>325</ele>
        <time>2019-03-13T15:14:03Z</time>
      </trkpt>
      <trkpt lat="43.5449" lon="6.39561">
        <ele>323</ele>
        <time>2019-03-13T15:14:13Z</time>
      </trkpt>
      <trkpt lat="43.54458" lon="6.39587">
        <ele>325</ele>
        <time>2019-03-13T15:14:45Z</time>
      </trkpt>
      <trkpt lat="43.54451" lon="6.39588">
        <ele>326</ele>
        <time>2019-03-13T15:14:52Z</time>
      </trkpt>
      <trkpt lat="43.54436" lon="6.39599">
        <ele>328</ele>
        <time>2019-03-13T15:15:05Z</time>
      </trkpt>
      <trkpt lat="43.54423" lon="6.39614">
        <ele>326</ele>
        <time>2019-03-13T15:15:18Z</time>
      </trkpt>
      <trkpt lat="43.54416" lon="6.39621">
        <ele>325</ele>
        <time>2019-03-13T15:15:25Z</time>
      </trkpt>
      <trkpt lat="43.54382" lon="6.39648">
        <ele>329</ele>
        <time>2019-03-13T15:16:02Z</time>
      </trkpt>
      <trkpt lat="43.54366" lon="6.39651">
        <ele>329</ele>
        <time>2019-03-13T15:16:20Z</time>
      </trkpt>
      <trkpt lat="43.54358" lon="6.39648">
        <ele>330</ele>
        <time>2019-03-13T15:16:29Z</time>
      </trkpt>
      <trkpt lat="43.54352" lon="6.39642">
        <ele>328</ele>
        <time>2019-03-13T15:16:35Z</time>
      </trkpt>
      <trkpt lat="43.54342" lon="6.39627">
        <ele>329</ele>
        <time>2019-03-13T15:16:49Z</time>
      </trkpt>
      <trkpt lat="43.5433" lon="6.39599">
        <ele>329</ele>
        <time>2019-03-13T15:17:07Z</time>
      </trkpt>
      <trkpt lat="43.54327" lon="6.39592">
        <ele>330</ele>
        <time>2019-03-13T15:17:12Z</time>
      </trkpt>
      <trkpt lat="43.54323" lon="6.39577">
        <ele>330</ele>
        <time>2019-03-13T15:17:22Z</time>
      </trkpt>
      <trkpt lat="43.5432" lon="6.39568">
        <ele>330</ele>
        <time>2019-03-13T15:17:29Z</time>
      </trkpt>
      <trkpt lat="43.54317" lon="6.39561">
        <ele>329</ele>
        <time>2019-03-13T15:23:07Z</time>
      </trkpt>
      <trkpt lat="43.54313" lon="6.39554">
        <ele>329</ele>
        <time>2019-03-13T15:23:13Z</time>
      </trkpt>
      <trkpt lat="43.54309" lon="6.3954">
        <ele>326</ele>
        <time>2019-03-13T15:23:22Z</time>
      </trkpt>
      <trkpt lat="43.54301" lon="6.39524">
        <ele>323</ele>
        <time>2019-03-13T15:23:35Z</time>
      </trkpt>
      <trkpt lat="43.54292" lon="6.39508">
        <ele>321</ele>
        <time>2019-03-13T15:23:49Z</time>
      </trkpt>
      <trkpt lat="43.54281" lon="6.39474">
        <ele>317</ele>
        <time>2019-03-13T15:24:09Z</time>
      </trkpt>
      <trkpt lat="43.5427" lon="6.39449">
        <ele>318</ele>
        <time>2019-03-13T15:24:27Z</time>
      </trkpt>
      <trkpt lat="43.54265" lon="6.39443">
        <ele>320</ele>
        <time>2019-03-13T15:24:33Z</time>
      </trkpt>
      <trkpt lat="43.54257" lon="6.3944">
        <ele>319</ele>
        <time>2019-03-13T15:24:43Z</time>
      </trkpt>
      <trkpt lat="43.5425" lon="6.39441">
        <ele>315</ele>
        <time>2019-03-13T15:24:49Z</time>
      </trkpt>
      <trkpt lat="43.54237" lon="6.39445">
        <ele>312</ele>
        <time>2019-03-13T15:25:02Z</time>
      </trkpt>
      <trkpt lat="43.54229" lon="6.39444">
        <ele>312</ele>
        <time>2019-03-13T15:25:09Z</time>
      </trkpt>
      <trkpt lat="43.54223" lon="6.39439">
        <ele>311</ele>
        <time>2019-03-13T15:25:14Z</time>
      </trkpt>
      <trkpt lat="43.54218" lon="6.39434">
        <ele>310</ele>
        <time>2019-03-13T15:25:18Z</time>
      </trkpt>
      <trkpt lat="43.54212" lon="6.39427">
        <ele>310</ele>
        <time>2019-03-13T15:25:23Z</time>
      </trkpt>
      <trkpt lat="43.54206" lon="6.39421">
        <ele>311</ele>
        <time>2019-03-13T15:25:29Z</time>
      </trkpt>
      <trkpt lat="43.54202" lon="6.39414">
        <ele>312</ele>
        <time>2019-03-13T15:25:34Z</time>
      </trkpt>
      <trkpt lat="43.54198" lon="6.39405">
        <ele>313</ele>
        <time>2019-03-13T15:25:40Z</time>
      </trkpt>
      <trkpt lat="43.54188" lon="6.39392">
        <ele>313</ele>
        <time>2019-03-13T15:25:52Z</time>
      </trkpt>
      <trkpt lat="43.54182" lon="6.39389">
        <ele>313</ele>
        <time>2019-03-13T15:26:01Z</time>
      </trkpt>
      <trkpt lat="43.54176" lon="6.39385">
        <ele>312</ele>
        <time>2019-03-13T15:26:05Z</time>
      </trkpt>
      <trkpt lat="43.5416" lon="6.39363">
        <ele>313</ele>
        <time>2019-03-13T15:26:21Z</time>
      </trkpt>
      <trkpt lat="43.54153" lon="6.39356">
        <ele>313</ele>
        <time>2019-03-13T15:26:27Z</time>
      </trkpt>
      <trkpt lat="43.54149" lon="6.39349">
        <ele>313</ele>
        <time>2019-03-13T15:26:32Z</time>
      </trkpt>
      <trkpt lat="43.54142" lon="6.39345">
        <ele>313</ele>
        <time>2019-03-13T15:26:37Z</time>
      </trkpt>
      <trkpt lat="43.54136" lon="6.39338">
        <ele>313</ele>
        <time>2019-03-13T15:26:46Z</time>
      </trkpt>
      <trkpt lat="43.54129" lon="6.39332">
        <ele>311</ele>
        <time>2019-03-13T15:26:52Z</time>
      </trkpt>
      <trkpt lat="43.54122" lon="6.39329">
        <ele>310</ele>
        <time>2019-03-13T15:26:59Z</time>
      </trkpt>
      <trkpt lat="43.54116" lon="6.39324">
        <ele>308</ele>
        <time>2019-03-13T15:27:06Z</time>
      </trkpt>
      <trkpt lat="43.54097" lon="6.39311">
        <ele>305</ele>
        <time>2019-03-13T15:27:23Z</time>
      </trkpt>
      <trkpt lat="43.54091" lon="6.39296">
        <ele>305</ele>
        <time>2019-03-13T15:27:33Z</time>
      </trkpt>
      <trkpt lat="43.54084" lon="6.3928">
        <ele>305</ele>
        <time>2019-03-13T15:27:43Z</time>
      </trkpt>
      <trkpt lat="43.54077" lon="6.39278">
        <ele>305</ele>
        <time>2019-03-13T15:27:50Z</time>
      </trkpt>
      <trkpt lat="43.54052" lon="6.39272">
        <ele>306</ele>
        <time>2019-03-13T15:28:15Z</time>
      </trkpt>
      <trkpt lat="43.54037" lon="6.39278">
        <ele>308</ele>
        <time>2019-03-13T15:28:31Z</time>
      </trkpt>
      <trkpt lat="43.54026" lon="6.39283">
        <ele>309</ele>
        <time>2019-03-13T15:28:43Z</time>
      </trkpt>
      <trkpt lat="43.54017" lon="6.39287">
        <ele>311</ele>
        <time>2019-03-13T15:28:51Z</time>
      </trkpt>
      <trkpt lat="43.54008" lon="6.39292">
        <ele>313</ele>
        <time>2019-03-13T15:29:00Z</time>
      </trkpt>
      <trkpt lat="43.5399" lon="6.39298">
        <ele>313</ele>
        <time>2019-03-13T15:29:14Z</time>
      </trkpt>
      <trkpt lat="43.53975" lon="6.39295">
        <ele>310</ele>
        <time>2019-03-13T15:29:28Z</time>
      </trkpt>
      <trkpt lat="43.53946" lon="6.39302">
        <ele>307</ele>
        <time>2019-03-13T15:29:56Z</time>
      </trkpt>
      <trkpt lat="43.53919" lon="6.39308">
        <ele>307</ele>
        <time>2019-03-13T15:30:20Z</time>
      </trkpt>
      <trkpt lat="43.53903" lon="6.39317">
        <ele>306</ele>
        <time>2019-03-13T15:30:37Z</time>
      </trkpt>
      <trkpt lat="43.5388" lon="6.3933">
        <ele>308</ele>
        <time>2019-03-13T15:31:02Z</time>
      </trkpt>
      <trkpt lat="43.53874" lon="6.3933">
        <ele>308</ele>
        <time>2019-03-13T15:31:09Z</time>
      </trkpt>
      <trkpt lat="43.53858" lon="6.39322">
        <ele>306</ele>
        <time>2019-03-13T15:31:41Z</time>
      </trkpt>
      <trkpt lat="43.53835" lon="6.39305">
        <ele>303</ele>
        <time>2019-03-13T15:32:03Z</time>
      </trkpt>
      <trkpt lat="43.53824" lon="6.39293">
        <ele>305</ele>
        <time>2019-03-13T15:32:14Z</time>
      </trkpt>
      <trkpt lat="43.53803" lon="6.3928">
        <ele>306</ele>
        <time>2019-03-13T15:32:31Z</time>
      </trkpt>
      <trkpt lat="43.53763" lon="6.39272">
        <ele>302</ele>
        <time>2019-03-13T15:33:04Z</time>
      </trkpt>
      <trkpt lat="43.53749" lon="6.39264">
        <ele>303</ele>
        <time>2019-03-13T15:33:16Z</time>
      </trkpt>
      <trkpt lat="43.53737" lon="6.39254">
        <ele>303</ele>
        <time>2019-03-13T15:33:27Z</time>
      </trkpt>
      <trkpt lat="43.53733" lon="6.39253">
        <ele>303</ele>
        <time>2019-03-13T15:33:31Z</time>
      </trkpt>
      <trkpt lat="43.53724" lon="6.39252">
        <ele>303</ele>
        <time>2019-03-13T15:33:40Z</time>
      </trkpt>
      <trkpt lat="43.53716" lon="6.3926">
        <ele>303</ele>
        <time>2019-03-13T15:33:50Z</time>
      </trkpt>
      <trkpt lat="43.53712" lon="6.39265">
        <ele>304</ele>
        <time>2019-03-13T15:33:55Z</time>
      </trkpt>
      <trkpt lat="43.53707" lon="6.3927">
        <ele>304</ele>
        <time>2019-03-13T15:34:02Z</time>
      </trkpt>
      <trkpt lat="43.53702" lon="6.39274">
        <ele>304</ele>
        <time>2019-03-13T15:34:08Z</time>
      </trkpt>
      <trkpt lat="43.53691" lon="6.39275">
        <ele>305</ele>
        <time>2019-03-13T15:34:19Z</time>
      </trkpt>
      <trkpt lat="43.53685" lon="6.39274">
        <ele>306</ele>
        <time>2019-03-13T15:34:25Z</time>
      </trkpt>
      <trkpt lat="43.53673" lon="6.39269">
        <ele>309</ele>
        <time>2019-03-13T15:34:38Z</time>
      </trkpt>
      <trkpt lat="43.53667" lon="6.39267">
        <ele>309</ele>
        <time>2019-03-13T15:34:43Z</time>
      </trkpt>
      <trkpt lat="43.53636" lon="6.39288">
        <ele>311</ele>
        <time>2019-03-13T15:35:13Z</time>
      </trkpt>
      <trkpt lat="43.53632" lon="6.39291">
        <ele>311</ele>
        <time>2019-03-13T15:35:17Z</time>
      </trkpt>
      <trkpt lat="43.53599" lon="6.39307">
        <ele>309</ele>
        <time>2019-03-13T15:35:48Z</time>
      </trkpt>
      <trkpt lat="43.53571" lon="6.39323">
        <ele>312</ele>
        <time>2019-03-13T15:36:15Z</time>
      </trkpt>
      <trkpt lat="43.53563" lon="6.39328">
        <ele>311</ele>
        <time>2019-03-13T15:36:22Z</time>
      </trkpt>
      <trkpt lat="43.53548" lon="6.39333">
        <ele>307</ele>
        <time>2019-03-13T15:36:38Z</time>
      </trkpt>
      <trkpt lat="43.53539" lon="6.39344">
        <ele>308</ele>
        <time>2019-03-13T15:36:49Z</time>
      </trkpt>
      <trkpt lat="43.53532" lon="6.39359">
        <ele>312</ele>
        <time>2019-03-13T15:37:00Z</time>
      </trkpt>
      <trkpt lat="43.53529" lon="6.39366">
        <ele>313</ele>
        <time>2019-03-13T15:37:06Z</time>
      </trkpt>
      <trkpt lat="43.53516" lon="6.39409">
        <ele>318</ele>
        <time>2019-03-13T15:37:38Z</time>
      </trkpt>
      <trkpt lat="43.53504" lon="6.39448">
        <ele>319</ele>
        <time>2019-03-13T15:38:09Z</time>
      </trkpt>
      <trkpt lat="43.53499" lon="6.39464">
        <ele>320</ele>
        <time>2019-03-13T15:38:19Z</time>
      </trkpt>
      <trkpt lat="43.53485" lon="6.39478">
        <ele>320</ele>
        <time>2019-03-13T15:38:35Z</time>
      </trkpt>
      <trkpt lat="43.53481" lon="6.3948">
        <ele>321</ele>
        <time>2019-03-13T15:38:39Z</time>
      </trkpt>
      <trkpt lat="43.53477" lon="6.39486">
        <ele>321</ele>
        <time>2019-03-13T15:38:44Z</time>
      </trkpt>
      <trkpt lat="43.5347" lon="6.39502">
        <ele>326</ele>
        <time>2019-03-13T15:38:59Z</time>
      </trkpt>
      <trkpt lat="43.5346" lon="6.39495">
        <ele>327</ele>
        <time>2019-03-13T15:39:13Z</time>
      </trkpt>
      <trkpt lat="43.53452" lon="6.39504">
        <ele>330</ele>
        <time>2019-03-13T15:39:23Z</time>
      </trkpt>
      <trkpt lat="43.53445" lon="6.39512">
        <ele>329</ele>
        <time>2019-03-13T15:39:30Z</time>
      </trkpt>
      <trkpt lat="43.53444" lon="6.39522">
        <ele>327</ele>
        <time>2019-03-13T15:39:38Z</time>
      </trkpt>
      <trkpt lat="43.53437" lon="6.39544">
        <ele>323</ele>
        <time>2019-03-13T15:39:55Z</time>
      </trkpt>
      <trkpt lat="43.53433" lon="6.39553">
        <ele>323</ele>
        <time>2019-03-13T15:40:01Z</time>
      </trkpt>
      <trkpt lat="43.5343" lon="6.39569">
        <ele>324</ele>
        <time>2019-03-13T15:40:15Z</time>
      </trkpt>
      <trkpt lat="43.53422" lon="6.39585">
        <ele>323</ele>
        <time>2019-03-13T15:40:28Z</time>
      </trkpt>
      <trkpt lat="43.53419" lon="6.39593">
        <ele>322</ele>
        <time>2019-03-13T15:40:35Z</time>
      </trkpt>
      <trkpt lat="43.53407" lon="6.39611">
        <ele>323</ele>
        <time>2019-03-13T15:40:55Z</time>
      </trkpt>
      <trkpt lat="43.53401" lon="6.39633">
        <ele>324</ele>
        <time>2019-03-13T15:41:11Z</time>
      </trkpt>
      <trkpt lat="43.53395" lon="6.39639">
        <ele>323</ele>
        <time>2019-03-13T15:41:17Z</time>
      </trkpt>
      <trkpt lat="43.53393" lon="6.39646">
        <ele>323</ele>
        <time>2019-03-13T15:41:23Z</time>
      </trkpt>
      <trkpt lat="43.53387" lon="6.39661">
        <ele>322</ele>
        <time>2019-03-13T15:41:34Z</time>
      </trkpt>
      <trkpt lat="43.53362" lon="6.39681">
        <ele>319</ele>
        <time>2019-03-13T15:41:59Z</time>
      </trkpt>
      <trkpt lat="43.53356" lon="6.39688">
        <ele>317</ele>
        <time>2019-03-13T15:42:07Z</time>
      </trkpt>
      <trkpt lat="43.5335" lon="6.39689">
        <ele>317</ele>
        <time>2019-03-13T15:42:11Z</time>
      </trkpt>
      <trkpt lat="43.53338" lon="6.39699">
        <ele>315</ele>
        <time>2019-03-13T15:42:25Z</time>
      </trkpt>
      <trkpt lat="43.53333" lon="6.39706">
        <ele>315</ele>
        <time>2019-03-13T15:42:35Z</time>
      </trkpt>
      <trkpt lat="43.53327" lon="6.39716">
        <ele>318</ele>
        <time>2019-03-13T15:42:46Z</time>
      </trkpt>
      <trkpt lat="43.53324" lon="6.39727">
        <ele>320</ele>
        <time>2019-03-13T15:42:53Z</time>
      </trkpt>
      <trkpt lat="43.53323" lon="6.39738">
        <ele>321</ele>
        <time>2019-03-13T15:43:01Z</time>
      </trkpt>
      <trkpt lat="43.53324" lon="6.3975">
        <ele>321</ele>
        <time>2019-03-13T15:43:08Z</time>
      </trkpt>
      <trkpt lat="43.53323" lon="6.39768">
        <ele>313</ele>
        <time>2019-03-13T15:43:27Z</time>
      </trkpt>
      <trkpt lat="43.53327" lon="6.3978">
        <ele>313</ele>
        <time>2019-03-13T15:43:37Z</time>
      </trkpt>
      <trkpt lat="43.5333" lon="6.398">
        <ele>315</ele>
        <time>2019-03-13T15:43:51Z</time>
      </trkpt>
      <trkpt lat="43.53328" lon="6.39805">
        <ele>316</ele>
        <time>2019-03-13T15:43:55Z</time>
      </trkpt>
      <trkpt lat="43.53328" lon="6.39844">
        <ele>315</ele>
        <time>2019-03-13T15:44:29Z</time>
      </trkpt>
      <trkpt lat="43.53327" lon="6.39853">
        <ele>316</ele>
        <time>2019-03-13T15:44:36Z</time>
      </trkpt>
      <trkpt lat="43.53328" lon="6.39864">
        <ele>317</ele>
        <time>2019-03-13T15:44:44Z</time>
      </trkpt>
      <trkpt lat="43.53332" lon="6.39875">
        <ele>316</ele>
        <time>2019-03-13T15:44:57Z</time>
      </trkpt>
      <trkpt lat="43.5334" lon="6.39879">
        <ele>315</ele>
        <time>2019-03-13T15:45:04Z</time>
      </trkpt>
      <trkpt lat="43.53348" lon="6.39887">
        <ele>317</ele>
        <time>2019-03-13T15:45:15Z</time>
      </trkpt>
      <trkpt lat="43.53362" lon="6.39878">
        <ele>320</ele>
        <time>2019-03-13T15:45:26Z</time>
      </trkpt>
      <trkpt lat="43.5339" lon="6.39874">
        <ele>319</ele>
        <time>2019-03-13T15:45:51Z</time>
      </trkpt>
      <trkpt lat="43.53396" lon="6.39877">
        <ele>317</ele>
        <time>2019-03-13T15:45:59Z</time>
      </trkpt>
      <trkpt lat="43.53394" lon="6.39883">
        <ele>316</ele>
        <time>2019-03-13T15:46:04Z</time>
      </trkpt>
      <trkpt lat="43.53391" lon="6.3989">
        <ele>312</ele>
        <time>2019-03-13T15:46:11Z</time>
      </trkpt>
      <trkpt lat="43.53391" lon="6.39896">
        <ele>309</ele>
        <time>2019-03-13T15:46:29Z</time>
      </trkpt>
      <trkpt lat="43.53396" lon="6.39899">
        <ele>306</ele>
        <time>2019-03-13T15:46:39Z</time>
      </trkpt>
      <trkpt lat="43.53401" lon="6.39896">
        <ele>305</ele>
        <time>2019-03-13T15:46:44Z</time>
      </trkpt>
      <trkpt lat="43.53407" lon="6.39894">
        <ele>303</ele>
        <time>2019-03-13T15:46:48Z</time>
      </trkpt>
      <trkpt lat="43.53416" lon="6.39894">
        <ele>300</ele>
        <time>2019-03-13T15:46:57Z</time>
      </trkpt>
      <trkpt lat="43.53427" lon="6.39896">
        <ele>298</ele>
        <time>2019-03-13T15:47:07Z</time>
      </trkpt>
      <trkpt lat="43.5344" lon="6.39897">
        <ele>295</ele>
        <time>2019-03-13T15:47:18Z</time>
      </trkpt>
      <trkpt lat="43.53444" lon="6.399">
        <ele>294</ele>
        <time>2019-03-13T15:47:23Z</time>
      </trkpt>
    </trkseg>
  </trk>
</gpx>